<?xml version="1.0" encoding="UTF-8" standalone="no" ?>
<gpx xmlns="http://www.topografix.com/GPX/1/1" creator="www.plotaroute.com" version="1.1"  xmlns:xsi="http://www.w3.org/2001/XMLSchema-instance" xsi:schemaLocation="http://www.topografix.com/GPX/1/1 http://www.topografix.com/GPX/1/1/gpx.xsd">
<metadata>
<desc>Route created on plotaroute.com</desc>
</metadata>
<trk>
<name>lejog-day-3</name>
<trkseg>
<trkpt lat="50.997813" lon="-3.02559">
<ele>44</ele>
<time>2020-08-03T00:00:00Z</time></trkpt>
<trkpt lat="50.998368" lon="-3.025217">
<ele>43</ele>
<time>2020-08-03T00:00:46Z</time></trkpt>
<trkpt lat="50.998806" lon="-3.024964">
<ele>42</ele>
<time>2020-08-03T00:01:21Z</time></trkpt>
<trkpt lat="50.999435" lon="-3.024649">
<ele>41</ele>
<time>2020-08-03T00:02:11Z</time></trkpt>
<trkpt lat="50.999721" lon="-3.024597">
<ele>40</ele>
<time>2020-08-03T00:02:33Z</time></trkpt>
<trkpt lat="50.99997" lon="-3.024597">
<ele>39</ele>
<time>2020-08-03T00:02:52Z</time></trkpt>
<trkpt lat="51.000947" lon="-3.024794">
<ele>40</ele>
<time>2020-08-03T00:04:10Z</time></trkpt>
<trkpt lat="51.001234" lon="-3.02476">
<ele>40</ele>
<time>2020-08-03T00:04:33Z</time></trkpt>
<trkpt lat="51.001498" lon="-3.024649">
<ele>40</ele>
<time>2020-08-03T00:04:54Z</time></trkpt>
<trkpt lat="51.00176" lon="-3.024479">
<ele>39</ele>
<time>2020-08-03T00:05:17Z</time></trkpt>
<trkpt lat="51.002108" lon="-3.024315">
<ele>39</ele>
<time>2020-08-03T00:05:45Z</time></trkpt>
<trkpt lat="51.002676" lon="-3.025372">
<ele>37</ele>
<time>2020-08-03T00:06:53Z</time></trkpt>
<trkpt lat="51.003212" lon="-3.026449">
<ele>36</ele>
<time>2020-08-03T00:07:59Z</time></trkpt>
<trkpt lat="51.003552" lon="-3.027085">
<ele>34</ele>
<time>2020-08-03T00:08:39Z</time></trkpt>
<trkpt lat="51.004441" lon="-3.028605">
<ele>30</ele>
<time>2020-08-03T00:10:16Z</time></trkpt>
<trkpt lat="51.005246" lon="-3.02982">
<ele>24</ele>
<time>2020-08-03T00:11:37Z</time></trkpt>
<trkpt lat="51.006118" lon="-3.031016">
<ele>24</ele>
<time>2020-08-03T00:13:03Z</time></trkpt>
<trkpt lat="51.008578" lon="-3.034647">
<ele>17</ele>
<time>2020-08-03T00:17:21Z</time></trkpt>
<trkpt lat="51.00943" lon="-3.035943">
<ele>16</ele>
<time>2020-08-03T00:18:54Z</time></trkpt>
<trkpt lat="51.009914" lon="-3.03679">
<ele>17</ele>
<time>2020-08-03T00:19:55Z</time></trkpt>
<trkpt lat="51.010261" lon="-3.037495">
<ele>16</ele>
<time>2020-08-03T00:20:42Z</time></trkpt>
<trkpt lat="51.0103737" lon="-3.0377632">
<ele>17</ele>
<time>2020-08-03T00:20:59Z</time></trkpt>
<trkpt lat="51.010711" lon="-3.038701">
<ele>18</ele>
<time>2020-08-03T00:21:57Z</time></trkpt>
<trkpt lat="51.010815" lon="-3.039087">
<ele>19</ele>
<time>2020-08-03T00:22:19Z</time></trkpt>
<trkpt lat="51.010899" lon="-3.039471">
<ele>19</ele>
<time>2020-08-03T00:22:40Z</time></trkpt>
<trkpt lat="51.011024" lon="-3.040258">
<ele>19</ele>
<time>2020-08-03T00:23:22Z</time></trkpt>
<trkpt lat="51.011222" lon="-3.04206">
<ele>19</ele>
<time>2020-08-03T00:24:57Z</time></trkpt>
<trkpt lat="51.011439" lon="-3.041992">
<ele>19</ele>
<time>2020-08-03T00:25:15Z</time></trkpt>
<trkpt lat="51.011769" lon="-3.04201">
<ele>19</ele>
<time>2020-08-03T00:25:44Z</time></trkpt>
<trkpt lat="51.013606" lon="-3.04221">
<ele>21</ele>
<time>2020-08-03T00:28:24Z</time></trkpt>
<trkpt lat="51.014349" lon="-3.04232">
<ele>20</ele>
<time>2020-08-03T00:29:22Z</time></trkpt>
<trkpt lat="51.014703" lon="-3.042394">
<ele>18</ele>
<time>2020-08-03T00:29:47Z</time></trkpt>
<trkpt lat="51.015535" lon="-3.042492">
<ele>13</ele>
<time>2020-08-03T00:30:46Z</time></trkpt>
<trkpt lat="51.016761" lon="-3.042437">
<ele>11</ele>
<time>2020-08-03T00:32:17Z</time></trkpt>
<trkpt lat="51.017316" lon="-3.042347">
<ele>10</ele>
<time>2020-08-03T00:33:01Z</time></trkpt>
<trkpt lat="51.018718" lon="-3.04187">
<ele>9</ele>
<time>2020-08-03T00:34:54Z</time></trkpt>
<trkpt lat="51.018981" lon="-3.041755">
<ele>9</ele>
<time>2020-08-03T00:35:17Z</time></trkpt>
<trkpt lat="51.019168" lon="-3.041592">
<ele>10</ele>
<time>2020-08-03T00:35:35Z</time></trkpt>
<trkpt lat="51.019497" lon="-3.041041">
<ele>10</ele>
<time>2020-08-03T00:36:15Z</time></trkpt>
<trkpt lat="51.019776" lon="-3.040681">
<ele>11</ele>
<time>2020-08-03T00:36:46Z</time></trkpt>
<trkpt lat="51.019908" lon="-3.040378">
<ele>11</ele>
<time>2020-08-03T00:37:05Z</time></trkpt>
<trkpt lat="51.020007" lon="-3.040041">
<ele>12</ele>
<time>2020-08-03T00:37:25Z</time></trkpt>
<trkpt lat="51.020156" lon="-3.039792">
<ele>12</ele>
<time>2020-08-03T00:37:44Z</time></trkpt>
<trkpt lat="51.020368" lon="-3.039566">
<ele>11</ele>
<time>2020-08-03T00:38:05Z</time></trkpt>
<trkpt lat="51.020714" lon="-3.03926">
<ele>10</ele>
<time>2020-08-03T00:38:37Z</time></trkpt>
<trkpt lat="51.022361" lon="-3.037847">
<ele>10</ele>
<time>2020-08-03T00:41:06Z</time></trkpt>
<trkpt lat="51.022484" lon="-3.037726">
<ele>10</ele>
<time>2020-08-03T00:41:17Z</time></trkpt>
<trkpt lat="51.022771" lon="-3.03718">
<ele>12</ele>
<time>2020-08-03T00:41:58Z</time></trkpt>
<trkpt lat="51.022818" lon="-3.03714">
<ele>12</ele>
<time>2020-08-03T00:42:03Z</time></trkpt>
<trkpt lat="51.022866" lon="-3.03713">
<ele>12</ele>
<time>2020-08-03T00:42:08Z</time></trkpt>
<trkpt lat="51.022944" lon="-3.037133">
<ele>12</ele>
<time>2020-08-03T00:42:15Z</time></trkpt>
<trkpt lat="51.023024" lon="-3.037185">
<ele>13</ele>
<time>2020-08-03T00:42:24Z</time></trkpt>
<trkpt lat="51.023628" lon="-3.037663">
<ele>13</ele>
<time>2020-08-03T00:43:29Z</time></trkpt>
<trkpt lat="51.023915" lon="-3.037902">
<ele>14</ele>
<time>2020-08-03T00:44:00Z</time></trkpt>
<trkpt lat="51.024055" lon="-3.038051">
<ele>15</ele>
<time>2020-08-03T00:44:16Z</time></trkpt>
<trkpt lat="51.024421" lon="-3.038339">
<ele>16</ele>
<time>2020-08-03T00:44:56Z</time></trkpt>
<trkpt lat="51.024958" lon="-3.038609">
<ele>18</ele>
<time>2020-08-03T00:45:50Z</time></trkpt>
<trkpt lat="51.025088" lon="-3.038639">
<ele>19</ele>
<time>2020-08-03T00:46:03Z</time></trkpt>
<trkpt lat="51.025474" lon="-3.038664">
<ele>20</ele>
<time>2020-08-03T00:46:40Z</time></trkpt>
<trkpt lat="51.025537" lon="-3.038687">
<ele>21</ele>
<time>2020-08-03T00:46:46Z</time></trkpt>
<trkpt lat="51.025655" lon="-3.038753">
<ele>21</ele>
<time>2020-08-03T00:46:58Z</time></trkpt>
<trkpt lat="51.025895" lon="-3.03902">
<ele>22</ele>
<time>2020-08-03T00:47:27Z</time></trkpt>
<trkpt lat="51.026064" lon="-3.039124">
<ele>23</ele>
<time>2020-08-03T00:47:44Z</time></trkpt>
<trkpt lat="51.026179" lon="-3.039157">
<ele>23</ele>
<time>2020-08-03T00:47:55Z</time></trkpt>
<trkpt lat="51.026673" lon="-3.039151">
<ele>24</ele>
<time>2020-08-03T00:48:43Z</time></trkpt>
<trkpt lat="51.026832" lon="-3.039127">
<ele>24</ele>
<time>2020-08-03T00:48:58Z</time></trkpt>
<trkpt lat="51.027854" lon="-3.038841">
<ele>23</ele>
<time>2020-08-03T00:50:21Z</time></trkpt>
<trkpt lat="51.027912" lon="-3.038822">
<ele>23</ele>
<time>2020-08-03T00:50:26Z</time></trkpt>
<trkpt lat="51.027937" lon="-3.038786">
<ele>23</ele>
<time>2020-08-03T00:50:28Z</time></trkpt>
<trkpt lat="51.028029" lon="-3.038785">
<ele>23</ele>
<time>2020-08-03T00:50:35Z</time></trkpt>
<trkpt lat="51.028402" lon="-3.038673">
<ele>22</ele>
<time>2020-08-03T00:51:04Z</time></trkpt>
<trkpt lat="51.028783" lon="-3.03859">
<ele>21</ele>
<time>2020-08-03T00:51:33Z</time></trkpt>
<trkpt lat="51.029508" lon="-3.038324">
<ele>19</ele>
<time>2020-08-03T00:52:30Z</time></trkpt>
<trkpt lat="51.030111" lon="-3.038116">
<ele>17</ele>
<time>2020-08-03T00:53:19Z</time></trkpt>
<trkpt lat="51.030742" lon="-3.037772">
<ele>15</ele>
<time>2020-08-03T00:54:11Z</time></trkpt>
<trkpt lat="51.031305" lon="-3.037332">
<ele>17</ele>
<time>2020-08-03T00:55:00Z</time></trkpt>
<trkpt lat="51.031377" lon="-3.037244">
<ele>17</ele>
<time>2020-08-03T00:55:07Z</time></trkpt>
<trkpt lat="51.031323" lon="-3.037122">
<ele>17</ele>
<time>2020-08-03T00:55:15Z</time></trkpt>
<trkpt lat="51.03126" lon="-3.036811">
<ele>17</ele>
<time>2020-08-03T00:55:31Z</time></trkpt>
<trkpt lat="51.03126" lon="-3.036714">
<ele>17</ele>
<time>2020-08-03T00:55:36Z</time></trkpt>
<trkpt lat="51.031442" lon="-3.035675">
<ele>19</ele>
<time>2020-08-03T00:56:40Z</time></trkpt>
<trkpt lat="51.031512" lon="-3.034991">
<ele>22</ele>
<time>2020-08-03T00:57:21Z</time></trkpt>
<trkpt lat="51.031533" lon="-3.034578">
<ele>22</ele>
<time>2020-08-03T00:57:46Z</time></trkpt>
<trkpt lat="51.031572" lon="-3.034195">
<ele>22</ele>
<time>2020-08-03T00:58:09Z</time></trkpt>
<trkpt lat="51.031622" lon="-3.033941">
<ele>22</ele>
<time>2020-08-03T00:58:25Z</time></trkpt>
<trkpt lat="51.031688" lon="-3.033747">
<ele>23</ele>
<time>2020-08-03T00:58:38Z</time></trkpt>
<trkpt lat="51.031862" lon="-3.033376">
<ele>23</ele>
<time>2020-08-03T00:59:05Z</time></trkpt>
<trkpt lat="51.032033" lon="-3.033069">
<ele>24</ele>
<time>2020-08-03T00:59:28Z</time></trkpt>
<trkpt lat="51.032141" lon="-3.032944">
<ele>24</ele>
<time>2020-08-03T00:59:39Z</time></trkpt>
<trkpt lat="51.032643" lon="-3.032556">
<ele>25</ele>
<time>2020-08-03T01:00:25Z</time></trkpt>
<trkpt lat="51.03281" lon="-3.032446">
<ele>25</ele>
<time>2020-08-03T01:00:40Z</time></trkpt>
<trkpt lat="51.033507" lon="-3.032132">
<ele>24</ele>
<time>2020-08-03T01:01:40Z</time></trkpt>
<trkpt lat="51.033848" lon="-3.032022">
<ele>24</ele>
<time>2020-08-03T01:02:08Z</time></trkpt>
<trkpt lat="51.034357" lon="-3.03193">
<ele>24</ele>
<time>2020-08-03T01:02:50Z</time></trkpt>
<trkpt lat="51.034979" lon="-3.031869">
<ele>24</ele>
<time>2020-08-03T01:03:40Z</time></trkpt>
<trkpt lat="51.036164" lon="-3.031808">
<ele>25</ele>
<time>2020-08-03T01:05:15Z</time></trkpt>
<trkpt lat="51.037891" lon="-3.031774">
<ele>27</ele>
<time>2020-08-03T01:07:48Z</time></trkpt>
<trkpt lat="51.040427" lon="-3.031951">
<ele>30</ele>
<time>2020-08-03T01:11:38Z</time></trkpt>
<trkpt lat="51.040918" lon="-3.031957">
<ele>31</ele>
<time>2020-08-03T01:12:22Z</time></trkpt>
<trkpt lat="51.041283" lon="-3.031897">
<ele>32</ele>
<time>2020-08-03T01:12:55Z</time></trkpt>
<trkpt lat="51.041873" lon="-3.03176">
<ele>34</ele>
<time>2020-08-03T01:13:45Z</time></trkpt>
<trkpt lat="51.042477" lon="-3.03158">
<ele>36</ele>
<time>2020-08-03T01:14:36Z</time></trkpt>
<trkpt lat="51.042731" lon="-3.031476">
<ele>35</ele>
<time>2020-08-03T01:14:58Z</time></trkpt>
<trkpt lat="51.043208" lon="-3.031203">
<ele>35</ele>
<time>2020-08-03T01:15:39Z</time></trkpt>
<trkpt lat="51.043485" lon="-3.030978">
<ele>34</ele>
<time>2020-08-03T01:16:05Z</time></trkpt>
<trkpt lat="51.043897" lon="-3.030515">
<ele>34</ele>
<time>2020-08-03T01:16:47Z</time></trkpt>
<trkpt lat="51.044152" lon="-3.030154">
<ele>34</ele>
<time>2020-08-03T01:17:16Z</time></trkpt>
<trkpt lat="51.04442" lon="-3.029664">
<ele>34</ele>
<time>2020-08-03T01:17:50Z</time></trkpt>
<trkpt lat="51.0446" lon="-3.029244">
<ele>34</ele>
<time>2020-08-03T01:18:18Z</time></trkpt>
<trkpt lat="51.045124" lon="-3.027824">
<ele>36</ele>
<time>2020-08-03T01:19:45Z</time></trkpt>
<trkpt lat="51.045237" lon="-3.027592">
<ele>36</ele>
<time>2020-08-03T01:20:01Z</time></trkpt>
<trkpt lat="51.045345" lon="-3.027377">
<ele>37</ele>
<time>2020-08-03T01:20:19Z</time></trkpt>
<trkpt lat="51.045507" lon="-3.027132">
<ele>38</ele>
<time>2020-08-03T01:20:42Z</time></trkpt>
<trkpt lat="51.045706" lon="-3.026837">
<ele>39</ele>
<time>2020-08-03T01:21:09Z</time></trkpt>
<trkpt lat="51.045942" lon="-3.026547">
<ele>41</ele>
<time>2020-08-03T01:21:39Z</time></trkpt>
<trkpt lat="51.046268" lon="-3.026235">
<ele>42</ele>
<time>2020-08-03T01:22:18Z</time></trkpt>
<trkpt lat="51.046426" lon="-3.026111">
<ele>42</ele>
<time>2020-08-03T01:22:36Z</time></trkpt>
<trkpt lat="51.046667" lon="-3.025949">
<ele>43</ele>
<time>2020-08-03T01:23:02Z</time></trkpt>
<trkpt lat="51.047043" lon="-3.025762">
<ele>44</ele>
<time>2020-08-03T01:23:42Z</time></trkpt>
<trkpt lat="51.047279" lon="-3.025687">
<ele>45</ele>
<time>2020-08-03T01:24:06Z</time></trkpt>
<trkpt lat="51.048053" lon="-3.025567">
<ele>46</ele>
<time>2020-08-03T01:25:12Z</time></trkpt>
<trkpt lat="51.048071" lon="-3.026136">
<ele>46</ele>
<time>2020-08-03T01:25:42Z</time></trkpt>
<trkpt lat="51.048053" lon="-3.027367">
<ele>47</ele>
<time>2020-08-03T01:26:48Z</time></trkpt>
<trkpt lat="51.047975" lon="-3.03044">
<ele>44</ele>
<time>2020-08-03T01:29:22Z</time></trkpt>
<trkpt lat="51.047929" lon="-3.031402">
<ele>43</ele>
<time>2020-08-03T01:30:09Z</time></trkpt>
<trkpt lat="51.047861" lon="-3.032123">
<ele>44</ele>
<time>2020-08-03T01:30:46Z</time></trkpt>
<trkpt lat="51.047783" lon="-3.032688">
<ele>44</ele>
<time>2020-08-03T01:31:20Z</time></trkpt>
<trkpt lat="51.047613" lon="-3.033565">
<ele>45</ele>
<time>2020-08-03T01:32:14Z</time></trkpt>
<trkpt lat="51.04786" lon="-3.033657">
<ele>46</ele>
<time>2020-08-03T01:32:38Z</time></trkpt>
<trkpt lat="51.048071" lon="-3.033631">
<ele>47</ele>
<time>2020-08-03T01:32:58Z</time></trkpt>
<trkpt lat="51.04816" lon="-3.033672">
<ele>47</ele>
<time>2020-08-03T01:33:07Z</time></trkpt>
<trkpt lat="51.048201" lon="-3.033714">
<ele>47</ele>
<time>2020-08-03T01:33:11Z</time></trkpt>
<trkpt lat="51.048337" lon="-3.033938">
<ele>48</ele>
<time>2020-08-03T01:33:30Z</time></trkpt>
<trkpt lat="51.048741" lon="-3.0338">
<ele>49</ele>
<time>2020-08-03T01:34:09Z</time></trkpt>
<trkpt lat="51.049067" lon="-3.033782">
<ele>50</ele>
<time>2020-08-03T01:34:38Z</time></trkpt>
<trkpt lat="51.049428" lon="-3.033852">
<ele>51</ele>
<time>2020-08-03T01:35:08Z</time></trkpt>
<trkpt lat="51.049808" lon="-3.033998">
<ele>52</ele>
<time>2020-08-03T01:35:40Z</time></trkpt>
<trkpt lat="51.049949" lon="-3.034029">
<ele>52</ele>
<time>2020-08-03T01:35:52Z</time></trkpt>
<trkpt lat="51.050881" lon="-3.034597">
<ele>50</ele>
<time>2020-08-03T01:37:14Z</time></trkpt>
<trkpt lat="51.0517852" lon="-3.0352127">
<ele>52</ele>
<time>2020-08-03T01:38:53Z</time></trkpt>
<trkpt lat="51.052116" lon="-3.035438">
<ele>55</ele>
<time>2020-08-03T01:39:34Z</time></trkpt>
<trkpt lat="51.05242" lon="-3.035591">
<ele>57</ele>
<time>2020-08-03T01:40:10Z</time></trkpt>
<trkpt lat="51.0527636" lon="-3.0356943">
<ele>59</ele>
<time>2020-08-03T01:40:49Z</time></trkpt>
<trkpt lat="51.053056" lon="-3.035734">
<ele>61</ele>
<time>2020-08-03T01:41:22Z</time></trkpt>
<trkpt lat="51.054665" lon="-3.035731">
<ele>73</ele>
<time>2020-08-03T01:44:27Z</time></trkpt>
<trkpt lat="51.055038" lon="-3.035819">
<ele>74</ele>
<time>2020-08-03T01:45:10Z</time></trkpt>
<trkpt lat="51.056093" lon="-3.036345">
<ele>80</ele>
<time>2020-08-03T01:47:11Z</time></trkpt>
<trkpt lat="51.056512" lon="-3.036478">
<ele>80</ele>
<time>2020-08-03T01:47:44Z</time></trkpt>
<trkpt lat="51.056682" lon="-3.036499">
<ele>80</ele>
<time>2020-08-03T01:47:57Z</time></trkpt>
<trkpt lat="51.056932" lon="-3.036482">
<ele>79</ele>
<time>2020-08-03T01:48:16Z</time></trkpt>
<trkpt lat="51.057315" lon="-3.036359">
<ele>77</ele>
<time>2020-08-03T01:48:46Z</time></trkpt>
<trkpt lat="51.057635" lon="-3.036162">
<ele>76</ele>
<time>2020-08-03T01:49:12Z</time></trkpt>
<trkpt lat="51.057821" lon="-3.036008">
<ele>76</ele>
<time>2020-08-03T01:49:28Z</time></trkpt>
<trkpt lat="51.061263" lon="-3.032699">
<ele>65</ele>
<time>2020-08-03T01:54:24Z</time></trkpt>
<trkpt lat="51.062347" lon="-3.031623">
<ele>59</ele>
<time>2020-08-03T01:55:57Z</time></trkpt>
<trkpt lat="51.062529" lon="-3.031489">
<ele>57</ele>
<time>2020-08-03T01:56:12Z</time></trkpt>
<trkpt lat="51.062867" lon="-3.031112">
<ele>55</ele>
<time>2020-08-03T01:56:44Z</time></trkpt>
<trkpt lat="51.063118" lon="-3.030793">
<ele>54</ele>
<time>2020-08-03T01:57:09Z</time></trkpt>
<trkpt lat="51.063308" lon="-3.030515">
<ele>54</ele>
<time>2020-08-03T01:57:29Z</time></trkpt>
<trkpt lat="51.063624" lon="-3.029947">
<ele>54</ele>
<time>2020-08-03T01:58:05Z</time></trkpt>
<trkpt lat="51.063976" lon="-3.029166">
<ele>54</ele>
<time>2020-08-03T01:58:52Z</time></trkpt>
<trkpt lat="51.064117" lon="-3.028761">
<ele>54</ele>
<time>2020-08-03T01:59:16Z</time></trkpt>
<trkpt lat="51.064845" lon="-3.02709">
<ele>59</ele>
<time>2020-08-03T02:01:23Z</time></trkpt>
<trkpt lat="51.065212" lon="-3.026356">
<ele>60</ele>
<time>2020-08-03T02:02:21Z</time></trkpt>
<trkpt lat="51.065421" lon="-3.02609">
<ele>61</ele>
<time>2020-08-03T02:02:47Z</time></trkpt>
<trkpt lat="51.065615" lon="-3.025783">
<ele>62</ele>
<time>2020-08-03T02:03:13Z</time></trkpt>
<trkpt lat="51.066281" lon="-3.024866">
<ele>62</ele>
<time>2020-08-03T02:04:23Z</time></trkpt>
<trkpt lat="51.066683" lon="-3.024361">
<ele>63</ele>
<time>2020-08-03T02:05:04Z</time></trkpt>
<trkpt lat="51.067149" lon="-3.023844">
<ele>63</ele>
<time>2020-08-03T02:05:50Z</time></trkpt>
<trkpt lat="51.067628" lon="-3.023388">
<ele>62</ele>
<time>2020-08-03T02:06:34Z</time></trkpt>
<trkpt lat="51.068114" lon="-3.022998">
<ele>60</ele>
<time>2020-08-03T02:07:14Z</time></trkpt>
<trkpt lat="51.068931" lon="-3.022409">
<ele>58</ele>
<time>2020-08-03T02:08:22Z</time></trkpt>
<trkpt lat="51.069308" lon="-3.02211">
<ele>57</ele>
<time>2020-08-03T02:08:54Z</time></trkpt>
<trkpt lat="51.06985" lon="-3.021845">
<ele>55</ele>
<time>2020-08-03T02:09:37Z</time></trkpt>
<trkpt lat="51.070109" lon="-3.021755">
<ele>55</ele>
<time>2020-08-03T02:09:57Z</time></trkpt>
<trkpt lat="51.07093" lon="-3.021547">
<ele>56</ele>
<time>2020-08-03T02:11:02Z</time></trkpt>
<trkpt lat="51.073254" lon="-3.02131">
<ele>49</ele>
<time>2020-08-03T02:14:02Z</time></trkpt>
<trkpt lat="51.07373" lon="-3.02123">
<ele>49</ele>
<time>2020-08-03T02:14:39Z</time></trkpt>
<trkpt lat="51.074363" lon="-3.021076">
<ele>49</ele>
<time>2020-08-03T02:15:28Z</time></trkpt>
<trkpt lat="51.07457" lon="-3.021023">
<ele>49</ele>
<time>2020-08-03T02:15:45Z</time></trkpt>
<trkpt lat="51.075444" lon="-3.020717">
<ele>51</ele>
<time>2020-08-03T02:17:00Z</time></trkpt>
<trkpt lat="51.076323" lon="-3.020339">
<ele>52</ele>
<time>2020-08-03T02:18:18Z</time></trkpt>
<trkpt lat="51.076755" lon="-3.020123">
<ele>51</ele>
<time>2020-08-03T02:18:56Z</time></trkpt>
<trkpt lat="51.077396" lon="-3.019761">
<ele>49</ele>
<time>2020-08-03T02:19:49Z</time></trkpt>
<trkpt lat="51.079104" lon="-3.01872">
<ele>47</ele>
<time>2020-08-03T02:22:09Z</time></trkpt>
<trkpt lat="51.079505" lon="-3.018411">
<ele>46</ele>
<time>2020-08-03T02:22:43Z</time></trkpt>
<trkpt lat="51.080742" lon="-3.0173">
<ele>42</ele>
<time>2020-08-03T02:24:30Z</time></trkpt>
<trkpt lat="51.081309" lon="-3.016821">
<ele>41</ele>
<time>2020-08-03T02:25:18Z</time></trkpt>
<trkpt lat="51.08159" lon="-3.01664">
<ele>41</ele>
<time>2020-08-03T02:25:42Z</time></trkpt>
<trkpt lat="51.081978" lon="-3.016478">
<ele>41</ele>
<time>2020-08-03T02:26:14Z</time></trkpt>
<trkpt lat="51.082474" lon="-3.016375">
<ele>40</ele>
<time>2020-08-03T02:26:54Z</time></trkpt>
<trkpt lat="51.082891" lon="-3.016411">
<ele>39</ele>
<time>2020-08-03T02:27:27Z</time></trkpt>
<trkpt lat="51.084931" lon="-3.01683">
<ele>45</ele>
<time>2020-08-03T02:30:43Z</time></trkpt>
<trkpt lat="51.087102" lon="-3.01767">
<ele>50</ele>
<time>2020-08-03T02:34:02Z</time></trkpt>
<trkpt lat="51.087366" lon="-3.017737">
<ele>50</ele>
<time>2020-08-03T02:34:23Z</time></trkpt>
<trkpt lat="51.087488" lon="-3.017725">
<ele>50</ele>
<time>2020-08-03T02:34:32Z</time></trkpt>
<trkpt lat="51.087786" lon="-3.017629">
<ele>48</ele>
<time>2020-08-03T02:34:55Z</time></trkpt>
<trkpt lat="51.088487" lon="-3.017231">
<ele>45</ele>
<time>2020-08-03T02:35:52Z</time></trkpt>
<trkpt lat="51.089158" lon="-3.016915">
<ele>44</ele>
<time>2020-08-03T02:36:44Z</time></trkpt>
<trkpt lat="51.089405" lon="-3.016833">
<ele>43</ele>
<time>2020-08-03T02:37:03Z</time></trkpt>
<trkpt lat="51.089656" lon="-3.016782">
<ele>43</ele>
<time>2020-08-03T02:37:22Z</time></trkpt>
<trkpt lat="51.09075" lon="-3.017024">
<ele>39</ele>
<time>2020-08-03T02:38:46Z</time></trkpt>
<trkpt lat="51.091095" lon="-3.017076">
<ele>38</ele>
<time>2020-08-03T02:39:15Z</time></trkpt>
<trkpt lat="51.091261" lon="-3.017072">
<ele>38</ele>
<time>2020-08-03T02:39:29Z</time></trkpt>
<trkpt lat="51.091583" lon="-3.016966">
<ele>37</ele>
<time>2020-08-03T02:39:57Z</time></trkpt>
<trkpt lat="51.091746" lon="-3.016853">
<ele>37</ele>
<time>2020-08-03T02:40:12Z</time></trkpt>
<trkpt lat="51.091868" lon="-3.016721">
<ele>37</ele>
<time>2020-08-03T02:40:25Z</time></trkpt>
<trkpt lat="51.092149" lon="-3.016345">
<ele>38</ele>
<time>2020-08-03T02:40:56Z</time></trkpt>
<trkpt lat="51.092317" lon="-3.01606">
<ele>38</ele>
<time>2020-08-03T02:41:17Z</time></trkpt>
<trkpt lat="51.092439" lon="-3.015728">
<ele>39</ele>
<time>2020-08-03T02:41:37Z</time></trkpt>
<trkpt lat="51.092509" lon="-3.015391">
<ele>40</ele>
<time>2020-08-03T02:41:56Z</time></trkpt>
<trkpt lat="51.092848" lon="-3.012947">
<ele>39</ele>
<time>2020-08-03T02:43:59Z</time></trkpt>
<trkpt lat="51.092927" lon="-3.012505">
<ele>38</ele>
<time>2020-08-03T02:44:21Z</time></trkpt>
<trkpt lat="51.093064" lon="-3.012001">
<ele>38</ele>
<time>2020-08-03T02:44:48Z</time></trkpt>
<trkpt lat="51.093156" lon="-3.011727">
<ele>38</ele>
<time>2020-08-03T02:45:03Z</time></trkpt>
<trkpt lat="51.093506" lon="-3.010788">
<ele>38</ele>
<time>2020-08-03T02:45:57Z</time></trkpt>
<trkpt lat="51.093602" lon="-3.01055">
<ele>38</ele>
<time>2020-08-03T02:46:11Z</time></trkpt>
<trkpt lat="51.094083" lon="-3.009511">
<ele>38</ele>
<time>2020-08-03T02:47:16Z</time></trkpt>
<trkpt lat="51.094802" lon="-3.008062">
<ele>37</ele>
<time>2020-08-03T02:48:47Z</time></trkpt>
<trkpt lat="51.09573" lon="-3.006438">
<ele>35</ele>
<time>2020-08-03T02:50:33Z</time></trkpt>
<trkpt lat="51.095887" lon="-3.006201">
<ele>35</ele>
<time>2020-08-03T02:50:50Z</time></trkpt>
<trkpt lat="51.096226" lon="-3.005755">
<ele>33</ele>
<time>2020-08-03T02:51:23Z</time></trkpt>
<trkpt lat="51.096321" lon="-3.005657">
<ele>33</ele>
<time>2020-08-03T02:51:32Z</time></trkpt>
<trkpt lat="51.098868" lon="-3.003509">
<ele>33</ele>
<time>2020-08-03T02:55:27Z</time></trkpt>
<trkpt lat="51.099696" lon="-3.002945">
<ele>31</ele>
<time>2020-08-03T02:56:35Z</time></trkpt>
<trkpt lat="51.100236" lon="-3.002491">
<ele>30</ele>
<time>2020-08-03T02:57:22Z</time></trkpt>
<trkpt lat="51.101422" lon="-3.001325">
<ele>26</ele>
<time>2020-08-03T02:59:06Z</time></trkpt>
<trkpt lat="51.101856" lon="-3.000871">
<ele>24</ele>
<time>2020-08-03T02:59:45Z</time></trkpt>
<trkpt lat="51.103067" lon="-2.999357">
<ele>20</ele>
<time>2020-08-03T03:01:41Z</time></trkpt>
<trkpt lat="51.103352" lon="-2.998973">
<ele>19</ele>
<time>2020-08-03T03:02:10Z</time></trkpt>
<trkpt lat="51.103519" lon="-2.998712">
<ele>19</ele>
<time>2020-08-03T03:02:28Z</time></trkpt>
<trkpt lat="51.103686" lon="-2.998327">
<ele>18</ele>
<time>2020-08-03T03:02:51Z</time></trkpt>
<trkpt lat="51.103747" lon="-2.998276">
<ele>19</ele>
<time>2020-08-03T03:02:56Z</time></trkpt>
<trkpt lat="51.103856" lon="-2.998246">
<ele>19</ele>
<time>2020-08-03T03:03:05Z</time></trkpt>
<trkpt lat="51.103933" lon="-2.998216">
<ele>19</ele>
<time>2020-08-03T03:03:11Z</time></trkpt>
<trkpt lat="51.103999" lon="-2.998149">
<ele>19</ele>
<time>2020-08-03T03:03:17Z</time></trkpt>
<trkpt lat="51.104094" lon="-2.998013">
<ele>19</ele>
<time>2020-08-03T03:03:27Z</time></trkpt>
<trkpt lat="51.104365" lon="-2.99771">
<ele>19</ele>
<time>2020-08-03T03:03:53Z</time></trkpt>
<trkpt lat="51.105381" lon="-2.99648">
<ele>16</ele>
<time>2020-08-03T03:05:29Z</time></trkpt>
<trkpt lat="51.106163" lon="-2.995613">
<ele>14</ele>
<time>2020-08-03T03:06:41Z</time></trkpt>
<trkpt lat="51.106964" lon="-2.994774">
<ele>13</ele>
<time>2020-08-03T03:07:54Z</time></trkpt>
<trkpt lat="51.107303" lon="-2.994451">
<ele>13</ele>
<time>2020-08-03T03:08:24Z</time></trkpt>
<trkpt lat="51.107663" lon="-2.994188">
<ele>12</ele>
<time>2020-08-03T03:08:55Z</time></trkpt>
<trkpt lat="51.108041" lon="-2.994011">
<ele>11</ele>
<time>2020-08-03T03:09:25Z</time></trkpt>
<trkpt lat="51.108257" lon="-2.993947">
<ele>10</ele>
<time>2020-08-03T03:09:42Z</time></trkpt>
<trkpt lat="51.10865" lon="-2.993903">
<ele>9</ele>
<time>2020-08-03T03:10:12Z</time></trkpt>
<trkpt lat="51.108879" lon="-2.993916">
<ele>8</ele>
<time>2020-08-03T03:10:30Z</time></trkpt>
<trkpt lat="51.109191" lon="-2.993979">
<ele>7</ele>
<time>2020-08-03T03:10:55Z</time></trkpt>
<trkpt lat="51.10945" lon="-2.99406">
<ele>7</ele>
<time>2020-08-03T03:11:15Z</time></trkpt>
<trkpt lat="51.11184" lon="-2.995011">
<ele>7</ele>
<time>2020-08-03T03:14:32Z</time></trkpt>
<trkpt lat="51.112106" lon="-2.9953">
<ele>7</ele>
<time>2020-08-03T03:14:59Z</time></trkpt>
<trkpt lat="51.112153" lon="-2.995447">
<ele>7</ele>
<time>2020-08-03T03:15:08Z</time></trkpt>
<trkpt lat="51.112193" lon="-2.995503">
<ele>7</ele>
<time>2020-08-03T03:15:13Z</time></trkpt>
<trkpt lat="51.11229" lon="-2.99556">
<ele>7</ele>
<time>2020-08-03T03:15:21Z</time></trkpt>
<trkpt lat="51.11234" lon="-2.995559">
<ele>8</ele>
<time>2020-08-03T03:15:26Z</time></trkpt>
<trkpt lat="51.112444" lon="-2.995501">
<ele>8</ele>
<time>2020-08-03T03:15:35Z</time></trkpt>
<trkpt lat="51.112599" lon="-2.995455">
<ele>8</ele>
<time>2020-08-03T03:15:48Z</time></trkpt>
<trkpt lat="51.11281" lon="-2.995415">
<ele>8</ele>
<time>2020-08-03T03:16:06Z</time></trkpt>
<trkpt lat="51.114352" lon="-2.996014">
<ele>6</ele>
<time>2020-08-03T03:18:16Z</time></trkpt>
<trkpt lat="51.115012" lon="-2.99621">
<ele>7</ele>
<time>2020-08-03T03:19:10Z</time></trkpt>
<trkpt lat="51.115886" lon="-2.996403">
<ele>9</ele>
<time>2020-08-03T03:20:20Z</time></trkpt>
<trkpt lat="51.116326" lon="-2.996526">
<ele>8</ele>
<time>2020-08-03T03:20:56Z</time></trkpt>
<trkpt lat="51.116564" lon="-2.996633">
<ele>8</ele>
<time>2020-08-03T03:21:16Z</time></trkpt>
<trkpt lat="51.116779" lon="-2.99676">
<ele>8</ele>
<time>2020-08-03T03:21:34Z</time></trkpt>
<trkpt lat="51.119296" lon="-2.998407">
<ele>8</ele>
<time>2020-08-03T03:25:19Z</time></trkpt>
<trkpt lat="51.119888" lon="-2.99877">
<ele>9</ele>
<time>2020-08-03T03:26:12Z</time></trkpt>
<trkpt lat="51.120521" lon="-2.999035">
<ele>10</ele>
<time>2020-08-03T03:27:07Z</time></trkpt>
<trkpt lat="51.121442" lon="-2.999337">
<ele>10</ele>
<time>2020-08-03T03:28:22Z</time></trkpt>
<trkpt lat="51.121916" lon="-2.999559">
<ele>10</ele>
<time>2020-08-03T03:29:01Z</time></trkpt>
<trkpt lat="51.122334" lon="-2.999838">
<ele>10</ele>
<time>2020-08-03T03:29:38Z</time></trkpt>
<trkpt lat="51.122788" lon="-3.000221">
<ele>10</ele>
<time>2020-08-03T03:30:19Z</time></trkpt>
<trkpt lat="51.123156" lon="-3.000494">
<ele>10</ele>
<time>2020-08-03T03:30:51Z</time></trkpt>
<trkpt lat="51.123435" lon="-3.000644">
<ele>10</ele>
<time>2020-08-03T03:31:14Z</time></trkpt>
<trkpt lat="51.123972" lon="-3.000848">
<ele>10</ele>
<time>2020-08-03T03:31:58Z</time></trkpt>
<trkpt lat="51.124663" lon="-3.00103">
<ele>9</ele>
<time>2020-08-03T03:32:53Z</time></trkpt>
<trkpt lat="51.12505" lon="-3.00116">
<ele>9</ele>
<time>2020-08-03T03:33:25Z</time></trkpt>
<trkpt lat="51.125828" lon="-3.001674">
<ele>10</ele>
<time>2020-08-03T03:34:32Z</time></trkpt>
<trkpt lat="51.12594" lon="-3.001673">
<ele>10</ele>
<time>2020-08-03T03:34:40Z</time></trkpt>
<trkpt lat="51.126167" lon="-3.001032">
<ele>10</ele>
<time>2020-08-03T03:35:17Z</time></trkpt>
<trkpt lat="51.126472" lon="-3.00026">
<ele>9</ele>
<time>2020-08-03T03:36:02Z</time></trkpt>
<trkpt lat="51.126798" lon="-2.999564">
<ele>8</ele>
<time>2020-08-03T03:36:47Z</time></trkpt>
<trkpt lat="51.126999" lon="-2.999212">
<ele>8</ele>
<time>2020-08-03T03:37:12Z</time></trkpt>
<trkpt lat="51.127487" lon="-2.998508">
<ele>9</ele>
<time>2020-08-03T03:38:08Z</time></trkpt>
<trkpt lat="51.12774" lon="-2.998235">
<ele>9</ele>
<time>2020-08-03T03:38:34Z</time></trkpt>
<trkpt lat="51.128259" lon="-2.997812">
<ele>10</ele>
<time>2020-08-03T03:39:24Z</time></trkpt>
<trkpt lat="51.128869" lon="-2.997367">
<ele>10</ele>
<time>2020-08-03T03:40:19Z</time></trkpt>
<trkpt lat="51.129183" lon="-2.997187">
<ele>10</ele>
<time>2020-08-03T03:40:45Z</time></trkpt>
<trkpt lat="51.12973" lon="-2.996739">
<ele>10</ele>
<time>2020-08-03T03:41:35Z</time></trkpt>
<trkpt lat="51.130463" lon="-2.996067">
<ele>10</ele>
<time>2020-08-03T03:42:42Z</time></trkpt>
<trkpt lat="51.130835" lon="-2.995646">
<ele>10</ele>
<time>2020-08-03T03:43:19Z</time></trkpt>
<trkpt lat="51.131144" lon="-2.995332">
<ele>9</ele>
<time>2020-08-03T03:43:48Z</time></trkpt>
<trkpt lat="51.131362" lon="-2.995202">
<ele>9</ele>
<time>2020-08-03T03:44:07Z</time></trkpt>
<trkpt lat="51.131596" lon="-2.995158">
<ele>10</ele>
<time>2020-08-03T03:44:26Z</time></trkpt>
<trkpt lat="51.131627" lon="-2.995203">
<ele>9</ele>
<time>2020-08-03T03:44:29Z</time></trkpt>
<trkpt lat="51.131689" lon="-2.995237">
<ele>9</ele>
<time>2020-08-03T03:44:34Z</time></trkpt>
<trkpt lat="51.131749" lon="-2.995223">
<ele>9</ele>
<time>2020-08-03T03:44:39Z</time></trkpt>
<trkpt lat="51.131797" lon="-2.995173">
<ele>10</ele>
<time>2020-08-03T03:44:44Z</time></trkpt>
<trkpt lat="51.132076" lon="-2.995">
<ele>10</ele>
<time>2020-08-03T03:45:08Z</time></trkpt>
<trkpt lat="51.133035" lon="-2.9947">
<ele>10</ele>
<time>2020-08-03T03:46:26Z</time></trkpt>
<trkpt lat="51.133452" lon="-2.994522">
<ele>9</ele>
<time>2020-08-03T03:47:00Z</time></trkpt>
<trkpt lat="51.140038" lon="-2.99246">
<ele>9</ele>
<time>2020-08-03T03:56:00Z</time></trkpt>
<trkpt lat="51.14089" lon="-2.992164">
<ele>8</ele>
<time>2020-08-03T03:57:08Z</time></trkpt>
<trkpt lat="51.144023" lon="-2.991151">
<ele>7</ele>
<time>2020-08-03T04:01:22Z</time></trkpt>
<trkpt lat="51.145021" lon="-2.991079">
<ele>7</ele>
<time>2020-08-03T04:02:42Z</time></trkpt>
<trkpt lat="51.145496" lon="-2.990982">
<ele>7</ele>
<time>2020-08-03T04:03:20Z</time></trkpt>
<trkpt lat="51.145853" lon="-2.990874">
<ele>7</ele>
<time>2020-08-03T04:03:49Z</time></trkpt>
<trkpt lat="51.146199" lon="-2.990817">
<ele>7</ele>
<time>2020-08-03T04:04:17Z</time></trkpt>
<trkpt lat="51.146308" lon="-2.990838">
<ele>7</ele>
<time>2020-08-03T04:04:26Z</time></trkpt>
<trkpt lat="51.146411" lon="-2.9909">
<ele>7</ele>
<time>2020-08-03T04:04:35Z</time></trkpt>
<trkpt lat="51.146544" lon="-2.991029">
<ele>7</ele>
<time>2020-08-03T04:04:47Z</time></trkpt>
<trkpt lat="51.146625" lon="-2.991142">
<ele>7</ele>
<time>2020-08-03T04:04:56Z</time></trkpt>
<trkpt lat="51.146687" lon="-2.991184">
<ele>7</ele>
<time>2020-08-03T04:05:01Z</time></trkpt>
<trkpt lat="51.146759" lon="-2.991201">
<ele>7</ele>
<time>2020-08-03T04:05:07Z</time></trkpt>
<trkpt lat="51.146863" lon="-2.991173">
<ele>7</ele>
<time>2020-08-03T04:05:15Z</time></trkpt>
<trkpt lat="51.146954" lon="-2.991083">
<ele>7</ele>
<time>2020-08-03T04:05:24Z</time></trkpt>
<trkpt lat="51.148008" lon="-2.990441">
<ele>8</ele>
<time>2020-08-03T04:06:56Z</time></trkpt>
<trkpt lat="51.148971" lon="-2.989885">
<ele>8</ele>
<time>2020-08-03T04:08:21Z</time></trkpt>
<trkpt lat="51.149277" lon="-2.989659">
<ele>8</ele>
<time>2020-08-03T04:08:49Z</time></trkpt>
<trkpt lat="51.149451" lon="-2.989481">
<ele>8</ele>
<time>2020-08-03T04:09:05Z</time></trkpt>
<trkpt lat="51.149563" lon="-2.989426">
<ele>8</ele>
<time>2020-08-03T04:09:15Z</time></trkpt>
<trkpt lat="51.149634" lon="-2.989435">
<ele>8</ele>
<time>2020-08-03T04:09:21Z</time></trkpt>
<trkpt lat="51.149707" lon="-2.989478">
<ele>8</ele>
<time>2020-08-03T04:09:27Z</time></trkpt>
<trkpt lat="51.149778" lon="-2.989514">
<ele>8</ele>
<time>2020-08-03T04:09:33Z</time></trkpt>
<trkpt lat="51.149844" lon="-2.989513">
<ele>8</ele>
<time>2020-08-03T04:09:38Z</time></trkpt>
<trkpt lat="51.151452" lon="-2.988989">
<ele>8</ele>
<time>2020-08-03T04:11:49Z</time></trkpt>
<trkpt lat="51.153659" lon="-2.988231">
<ele>7</ele>
<time>2020-08-03T04:14:49Z</time></trkpt>
<trkpt lat="51.158589" lon="-2.986741">
<ele>8</ele>
<time>2020-08-03T04:21:33Z</time></trkpt>
<trkpt lat="51.158869" lon="-2.986668">
<ele>7</ele>
<time>2020-08-03T04:21:56Z</time></trkpt>
<trkpt lat="51.159407" lon="-2.98657">
<ele>8</ele>
<time>2020-08-03T04:22:40Z</time></trkpt>
<trkpt lat="51.159822" lon="-2.98656">
<ele>9</ele>
<time>2020-08-03T04:23:13Z</time></trkpt>
<trkpt lat="51.160216" lon="-2.986581">
<ele>9</ele>
<time>2020-08-03T04:23:45Z</time></trkpt>
<trkpt lat="51.160782" lon="-2.986687">
<ele>9</ele>
<time>2020-08-03T04:24:30Z</time></trkpt>
<trkpt lat="51.161385" lon="-2.986895">
<ele>7</ele>
<time>2020-08-03T04:25:20Z</time></trkpt>
<trkpt lat="51.161715" lon="-2.987059">
<ele>6</ele>
<time>2020-08-03T04:25:47Z</time></trkpt>
<trkpt lat="51.162001" lon="-2.98723">
<ele>6</ele>
<time>2020-08-03T04:26:12Z</time></trkpt>
<trkpt lat="51.162341" lon="-2.987448">
<ele>7</ele>
<time>2020-08-03T04:26:41Z</time></trkpt>
<trkpt lat="51.162631" lon="-2.987665">
<ele>7</ele>
<time>2020-08-03T04:27:07Z</time></trkpt>
<trkpt lat="51.164246" lon="-2.988977">
<ele>7</ele>
<time>2020-08-03T04:29:32Z</time></trkpt>
<trkpt lat="51.164413" lon="-2.98927">
<ele>7</ele>
<time>2020-08-03T04:29:52Z</time></trkpt>
<trkpt lat="51.164438" lon="-2.989364">
<ele>7</ele>
<time>2020-08-03T04:29:57Z</time></trkpt>
<trkpt lat="51.164492" lon="-2.989478">
<ele>7</ele>
<time>2020-08-03T04:30:04Z</time></trkpt>
<trkpt lat="51.164598" lon="-2.989584">
<ele>6</ele>
<time>2020-08-03T04:30:14Z</time></trkpt>
<trkpt lat="51.16473" lon="-2.989613">
<ele>6</ele>
<time>2020-08-03T04:30:25Z</time></trkpt>
<trkpt lat="51.164832" lon="-2.98957">
<ele>6</ele>
<time>2020-08-03T04:30:33Z</time></trkpt>
<trkpt lat="51.164886" lon="-2.989518">
<ele>6</ele>
<time>2020-08-03T04:30:38Z</time></trkpt>
<trkpt lat="51.165035" lon="-2.989468">
<ele>6</ele>
<time>2020-08-03T04:30:50Z</time></trkpt>
<trkpt lat="51.165184" lon="-2.989455">
<ele>7</ele>
<time>2020-08-03T04:31:02Z</time></trkpt>
<trkpt lat="51.165292" lon="-2.989477">
<ele>7</ele>
<time>2020-08-03T04:31:11Z</time></trkpt>
<trkpt lat="51.167575" lon="-2.99104">
<ele>10</ele>
<time>2020-08-03T04:34:45Z</time></trkpt>
<trkpt lat="51.170272" lon="-2.992931">
<ele>8</ele>
<time>2020-08-03T04:38:37Z</time></trkpt>
<trkpt lat="51.171414" lon="-2.993773">
<ele>6</ele>
<time>2020-08-03T04:40:16Z</time></trkpt>
<trkpt lat="51.175341" lon="-2.996527">
<ele>7</ele>
<time>2020-08-03T04:46:07Z</time></trkpt>
<trkpt lat="51.176254" lon="-2.997193">
<ele>8</ele>
<time>2020-08-03T04:47:33Z</time></trkpt>
<trkpt lat="51.176985" lon="-2.997777">
<ele>8</ele>
<time>2020-08-03T04:48:44Z</time></trkpt>
<trkpt lat="51.17714" lon="-2.997974">
<ele>8</ele>
<time>2020-08-03T04:49:02Z</time></trkpt>
<trkpt lat="51.177836" lon="-2.998994">
<ele>9</ele>
<time>2020-08-03T04:50:29Z</time></trkpt>
<trkpt lat="51.178361" lon="-2.999678">
<ele>11</ele>
<time>2020-08-03T04:51:31Z</time></trkpt>
<trkpt lat="51.178755" lon="-3.000131">
<ele>14</ele>
<time>2020-08-03T04:52:15Z</time></trkpt>
<trkpt lat="51.179326" lon="-3.00063">
<ele>17</ele>
<time>2020-08-03T04:53:14Z</time></trkpt>
<trkpt lat="51.179493" lon="-3.000743">
<ele>18</ele>
<time>2020-08-03T04:53:30Z</time></trkpt>
<trkpt lat="51.179686" lon="-3.000829">
<ele>19</ele>
<time>2020-08-03T04:53:48Z</time></trkpt>
<trkpt lat="51.180255" lon="-3.001039">
<ele>19</ele>
<time>2020-08-03T04:54:40Z</time></trkpt>
<trkpt lat="51.180661" lon="-3.001283">
<ele>18</ele>
<time>2020-08-03T04:55:19Z</time></trkpt>
<trkpt lat="51.181609" lon="-3.002099">
<ele>15</ele>
<time>2020-08-03T04:56:45Z</time></trkpt>
<trkpt lat="51.18191" lon="-3.002322">
<ele>15</ele>
<time>2020-08-03T04:57:11Z</time></trkpt>
<trkpt lat="51.18249" lon="-3.002686">
<ele>14</ele>
<time>2020-08-03T04:57:59Z</time></trkpt>
<trkpt lat="51.183012" lon="-3.00292">
<ele>14</ele>
<time>2020-08-03T04:58:41Z</time></trkpt>
<trkpt lat="51.183242" lon="-3.002996">
<ele>14</ele>
<time>2020-08-03T04:58:59Z</time></trkpt>
<trkpt lat="51.183723" lon="-3.003088">
<ele>14</ele>
<time>2020-08-03T04:59:36Z</time></trkpt>
<trkpt lat="51.183937" lon="-3.003098">
<ele>13</ele>
<time>2020-08-03T04:59:52Z</time></trkpt>
<trkpt lat="51.184304" lon="-3.003061">
<ele>13</ele>
<time>2020-08-03T05:00:20Z</time></trkpt>
<trkpt lat="51.184483" lon="-3.003006">
<ele>12</ele>
<time>2020-08-03T05:00:34Z</time></trkpt>
<trkpt lat="51.184688" lon="-3.002912">
<ele>12</ele>
<time>2020-08-03T05:00:50Z</time></trkpt>
<trkpt lat="51.185345" lon="-3.002511">
<ele>10</ele>
<time>2020-08-03T05:01:44Z</time></trkpt>
<trkpt lat="51.185749" lon="-3.002254">
<ele>9</ele>
<time>2020-08-03T05:02:18Z</time></trkpt>
<trkpt lat="51.186172" lon="-3.001949">
<ele>7</ele>
<time>2020-08-03T05:02:54Z</time></trkpt>
<trkpt lat="51.186793" lon="-3.001453">
<ele>6</ele>
<time>2020-08-03T05:03:48Z</time></trkpt>
<trkpt lat="51.189028" lon="-2.999863">
<ele>6</ele>
<time>2020-08-03T05:07:00Z</time></trkpt>
<trkpt lat="51.189705" lon="-2.99925">
<ele>5</ele>
<time>2020-08-03T05:08:02Z</time></trkpt>
<trkpt lat="51.190449" lon="-2.998477">
<ele>5</ele>
<time>2020-08-03T05:09:16Z</time></trkpt>
<trkpt lat="51.190758" lon="-2.998205">
<ele>6</ele>
<time>2020-08-03T05:09:46Z</time></trkpt>
<trkpt lat="51.191647" lon="-2.997575">
<ele>7</ele>
<time>2020-08-03T05:11:08Z</time></trkpt>
<trkpt lat="51.193322" lon="-2.996301">
<ele>5</ele>
<time>2020-08-03T05:13:37Z</time></trkpt>
<trkpt lat="51.19633" lon="-2.994267">
<ele>6</ele>
<time>2020-08-03T05:17:58Z</time></trkpt>
<trkpt lat="51.197577" lon="-2.993335">
<ele>6</ele>
<time>2020-08-03T05:19:47Z</time></trkpt>
<trkpt lat="51.19887" lon="-2.992188">
<ele>6</ele>
<time>2020-08-03T05:21:48Z</time></trkpt>
<trkpt lat="51.20065" lon="-2.99055">
<ele>8</ele>
<time>2020-08-03T05:24:46Z</time></trkpt>
<trkpt lat="51.201377" lon="-2.989981">
<ele>9</ele>
<time>2020-08-03T05:25:51Z</time></trkpt>
<trkpt lat="51.202483" lon="-2.989263">
<ele>8</ele>
<time>2020-08-03T05:27:25Z</time></trkpt>
<trkpt lat="51.204737" lon="-2.988136">
<ele>7</ele>
<time>2020-08-03T05:30:34Z</time></trkpt>
<trkpt lat="51.205726" lon="-2.987578">
<ele>7</ele>
<time>2020-08-03T05:31:58Z</time></trkpt>
<trkpt lat="51.206129" lon="-2.98738">
<ele>7</ele>
<time>2020-08-03T05:32:31Z</time></trkpt>
<trkpt lat="51.2083517" lon="-2.9861687">
<ele>8</ele>
<time>2020-08-03T05:35:40Z</time></trkpt>
<trkpt lat="51.209086" lon="-2.985754">
<ele>8</ele>
<time>2020-08-03T05:36:44Z</time></trkpt>
<trkpt lat="51.209668" lon="-2.985512">
<ele>7</ele>
<time>2020-08-03T05:37:34Z</time></trkpt>
<trkpt lat="51.210878" lon="-2.985059">
<ele>6</ele>
<time>2020-08-03T05:39:14Z</time></trkpt>
<trkpt lat="51.21138" lon="-2.984896">
<ele>7</ele>
<time>2020-08-03T05:39:55Z</time></trkpt>
<trkpt lat="51.212003" lon="-2.984739">
<ele>7</ele>
<time>2020-08-03T05:40:45Z</time></trkpt>
<trkpt lat="51.212468" lon="-2.984671">
<ele>7</ele>
<time>2020-08-03T05:41:23Z</time></trkpt>
<trkpt lat="51.212915" lon="-2.984555">
<ele>7</ele>
<time>2020-08-03T05:41:59Z</time></trkpt>
<trkpt lat="51.213599" lon="-2.984286">
<ele>6</ele>
<time>2020-08-03T05:42:55Z</time></trkpt>
<trkpt lat="51.214206" lon="-2.983979">
<ele>7</ele>
<time>2020-08-03T05:43:46Z</time></trkpt>
<trkpt lat="51.214683" lon="-2.983696">
<ele>7</ele>
<time>2020-08-03T05:44:27Z</time></trkpt>
<trkpt lat="51.214981" lon="-2.983479">
<ele>7</ele>
<time>2020-08-03T05:44:53Z</time></trkpt>
<trkpt lat="51.215619" lon="-2.982668">
<ele>7</ele>
<time>2020-08-03T05:45:57Z</time></trkpt>
<trkpt lat="51.216093" lon="-2.98203">
<ele>6</ele>
<time>2020-08-03T05:46:47Z</time></trkpt>
<trkpt lat="51.216217" lon="-2.981883">
<ele>6</ele>
<time>2020-08-03T05:46:59Z</time></trkpt>
<trkpt lat="51.216328" lon="-2.981786">
<ele>6</ele>
<time>2020-08-03T05:47:09Z</time></trkpt>
<trkpt lat="51.216405" lon="-2.981728">
<ele>6</ele>
<time>2020-08-03T05:47:16Z</time></trkpt>
<trkpt lat="51.21665" lon="-2.981667">
<ele>6</ele>
<time>2020-08-03T05:47:36Z</time></trkpt>
<trkpt lat="51.217086" lon="-2.981664">
<ele>7</ele>
<time>2020-08-03T05:48:12Z</time></trkpt>
<trkpt lat="51.21722" lon="-2.981637">
<ele>7</ele>
<time>2020-08-03T05:48:23Z</time></trkpt>
<trkpt lat="51.217338" lon="-2.981602">
<ele>7</ele>
<time>2020-08-03T05:48:33Z</time></trkpt>
<trkpt lat="51.21751" lon="-2.981472">
<ele>7</ele>
<time>2020-08-03T05:48:48Z</time></trkpt>
<trkpt lat="51.217585" lon="-2.981372">
<ele>6</ele>
<time>2020-08-03T05:48:56Z</time></trkpt>
<trkpt lat="51.218129" lon="-2.980275">
<ele>7</ele>
<time>2020-08-03T05:50:09Z</time></trkpt>
<trkpt lat="51.218298" lon="-2.979869">
<ele>7</ele>
<time>2020-08-03T05:50:34Z</time></trkpt>
<trkpt lat="51.21857" lon="-2.978883">
<ele>7</ele>
<time>2020-08-03T05:51:28Z</time></trkpt>
<trkpt lat="51.218622" lon="-2.978763">
<ele>7</ele>
<time>2020-08-03T05:51:35Z</time></trkpt>
<trkpt lat="51.218763" lon="-2.978555">
<ele>7</ele>
<time>2020-08-03T05:51:51Z</time></trkpt>
<trkpt lat="51.219052" lon="-2.978292">
<ele>7</ele>
<time>2020-08-03T05:52:17Z</time></trkpt>
<trkpt lat="51.219293" lon="-2.97794">
<ele>7</ele>
<time>2020-08-03T05:52:44Z</time></trkpt>
<trkpt lat="51.219327" lon="-2.977809">
<ele>7</ele>
<time>2020-08-03T05:52:51Z</time></trkpt>
<trkpt lat="51.219356" lon="-2.97738">
<ele>7</ele>
<time>2020-08-03T05:53:12Z</time></trkpt>
<trkpt lat="51.219407" lon="-2.976951">
<ele>7</ele>
<time>2020-08-03T05:53:34Z</time></trkpt>
<trkpt lat="51.219527" lon="-2.976658">
<ele>7</ele>
<time>2020-08-03T05:53:52Z</time></trkpt>
<trkpt lat="51.219645" lon="-2.976558">
<ele>7</ele>
<time>2020-08-03T05:54:03Z</time></trkpt>
<trkpt lat="51.219715" lon="-2.976573">
<ele>7</ele>
<time>2020-08-03T05:54:08Z</time></trkpt>
<trkpt lat="51.219767" lon="-2.976523">
<ele>7</ele>
<time>2020-08-03T05:54:13Z</time></trkpt>
<trkpt lat="51.219788" lon="-2.976463">
<ele>7</ele>
<time>2020-08-03T05:54:16Z</time></trkpt>
<trkpt lat="51.219784" lon="-2.976356">
<ele>7</ele>
<time>2020-08-03T05:54:22Z</time></trkpt>
<trkpt lat="51.219863" lon="-2.976122">
<ele>7</ele>
<time>2020-08-03T05:54:35Z</time></trkpt>
<trkpt lat="51.219998" lon="-2.976009">
<ele>7</ele>
<time>2020-08-03T05:54:47Z</time></trkpt>
<trkpt lat="51.220607" lon="-2.975691">
<ele>8</ele>
<time>2020-08-03T05:55:39Z</time></trkpt>
<trkpt lat="51.220981" lon="-2.975467">
<ele>7</ele>
<time>2020-08-03T05:56:11Z</time></trkpt>
<trkpt lat="51.22172" lon="-2.975132">
<ele>7</ele>
<time>2020-08-03T05:57:12Z</time></trkpt>
<trkpt lat="51.223339" lon="-2.974467">
<ele>7</ele>
<time>2020-08-03T05:59:26Z</time></trkpt>
<trkpt lat="51.223431" lon="-2.974412">
<ele>7</ele>
<time>2020-08-03T05:59:34Z</time></trkpt>
<trkpt lat="51.223493" lon="-2.974346">
<ele>7</ele>
<time>2020-08-03T05:59:40Z</time></trkpt>
<trkpt lat="51.223609" lon="-2.974162">
<ele>7</ele>
<time>2020-08-03T05:59:53Z</time></trkpt>
<trkpt lat="51.223682" lon="-2.974014">
<ele>7</ele>
<time>2020-08-03T06:00:02Z</time></trkpt>
<trkpt lat="51.223781" lon="-2.97372">
<ele>7</ele>
<time>2020-08-03T06:00:19Z</time></trkpt>
<trkpt lat="51.223856" lon="-2.973718">
<ele>7</ele>
<time>2020-08-03T06:00:25Z</time></trkpt>
<trkpt lat="51.223876" lon="-2.973692">
<ele>7</ele>
<time>2020-08-03T06:00:27Z</time></trkpt>
<trkpt lat="51.223896" lon="-2.973585">
<ele>7</ele>
<time>2020-08-03T06:00:33Z</time></trkpt>
<trkpt lat="51.223867" lon="-2.973505">
<ele>7</ele>
<time>2020-08-03T06:00:37Z</time></trkpt>
<trkpt lat="51.224015" lon="-2.973229">
<ele>7</ele>
<time>2020-08-03T06:00:56Z</time></trkpt>
<trkpt lat="51.225063" lon="-2.970984">
<ele>8</ele>
<time>2020-08-03T06:03:16Z</time></trkpt>
<trkpt lat="51.225448" lon="-2.970094">
<ele>6</ele>
<time>2020-08-03T06:04:10Z</time></trkpt>
<trkpt lat="51.225714" lon="-2.969522">
<ele>6</ele>
<time>2020-08-03T06:04:45Z</time></trkpt>
<trkpt lat="51.226948" lon="-2.966335">
<ele>6</ele>
<time>2020-08-03T06:07:51Z</time></trkpt>
<trkpt lat="51.228219" lon="-2.963167">
<ele>5</ele>
<time>2020-08-03T06:10:58Z</time></trkpt>
<trkpt lat="51.228375" lon="-2.962683">
<ele>5</ele>
<time>2020-08-03T06:11:26Z</time></trkpt>
<trkpt lat="51.22851" lon="-2.962405">
<ele>5</ele>
<time>2020-08-03T06:11:45Z</time></trkpt>
<trkpt lat="51.228558" lon="-2.962338">
<ele>5</ele>
<time>2020-08-03T06:11:50Z</time></trkpt>
<trkpt lat="51.228598" lon="-2.962329">
<ele>5</ele>
<time>2020-08-03T06:11:53Z</time></trkpt>
<trkpt lat="51.228672" lon="-2.962257">
<ele>6</ele>
<time>2020-08-03T06:12:00Z</time></trkpt>
<trkpt lat="51.228698" lon="-2.962196">
<ele>6</ele>
<time>2020-08-03T06:12:04Z</time></trkpt>
<trkpt lat="51.229077" lon="-2.96174">
<ele>6</ele>
<time>2020-08-03T06:12:43Z</time></trkpt>
<trkpt lat="51.229491" lon="-2.961206">
<ele>5</ele>
<time>2020-08-03T06:13:27Z</time></trkpt>
<trkpt lat="51.231586" lon="-2.958745">
<ele>5</ele>
<time>2020-08-03T06:16:56Z</time></trkpt>
<trkpt lat="51.233853" lon="-2.956276">
<ele>6</ele>
<time>2020-08-03T06:20:40Z</time></trkpt>
<trkpt lat="51.236623" lon="-2.95299">
<ele>5</ele>
<time>2020-08-03T06:25:15Z</time></trkpt>
<trkpt lat="51.237015" lon="-2.952505">
<ele>6</ele>
<time>2020-08-03T06:25:55Z</time></trkpt>
<trkpt lat="51.237176" lon="-2.952415">
<ele>5</ele>
<time>2020-08-03T06:26:08Z</time></trkpt>
<trkpt lat="51.237383" lon="-2.952356">
<ele>5</ele>
<time>2020-08-03T06:26:25Z</time></trkpt>
<trkpt lat="51.237449" lon="-2.952409">
<ele>5</ele>
<time>2020-08-03T06:26:31Z</time></trkpt>
<trkpt lat="51.237698" lon="-2.952482">
<ele>5</ele>
<time>2020-08-03T06:26:51Z</time></trkpt>
<trkpt lat="51.237781" lon="-2.952477">
<ele>5</ele>
<time>2020-08-03T06:26:58Z</time></trkpt>
<trkpt lat="51.237916" lon="-2.952412">
<ele>5</ele>
<time>2020-08-03T06:27:09Z</time></trkpt>
<trkpt lat="51.237975" lon="-2.952346">
<ele>5</ele>
<time>2020-08-03T06:27:14Z</time></trkpt>
<trkpt lat="51.238042" lon="-2.952182">
<ele>5</ele>
<time>2020-08-03T06:27:24Z</time></trkpt>
<trkpt lat="51.238092" lon="-2.951924">
<ele>5</ele>
<time>2020-08-03T06:27:38Z</time></trkpt>
<trkpt lat="51.238108" lon="-2.9516">
<ele>5</ele>
<time>2020-08-03T06:27:54Z</time></trkpt>
<trkpt lat="51.238138" lon="-2.951393">
<ele>5</ele>
<time>2020-08-03T06:28:04Z</time></trkpt>
<trkpt lat="51.238195" lon="-2.95122">
<ele>6</ele>
<time>2020-08-03T06:28:14Z</time></trkpt>
<trkpt lat="51.238289" lon="-2.951063">
<ele>6</ele>
<time>2020-08-03T06:28:25Z</time></trkpt>
<trkpt lat="51.238447" lon="-2.950871">
<ele>6</ele>
<time>2020-08-03T06:28:40Z</time></trkpt>
<trkpt lat="51.238646" lon="-2.95057">
<ele>5</ele>
<time>2020-08-03T06:29:02Z</time></trkpt>
<trkpt lat="51.238959" lon="-2.950209">
<ele>4</ele>
<time>2020-08-03T06:29:33Z</time></trkpt>
<trkpt lat="51.239275" lon="-2.949858">
<ele>4</ele>
<time>2020-08-03T06:30:04Z</time></trkpt>
<trkpt lat="51.240345" lon="-2.948752">
<ele>6</ele>
<time>2020-08-03T06:31:49Z</time></trkpt>
<trkpt lat="51.241009" lon="-2.948114">
<ele>5</ele>
<time>2020-08-03T06:32:53Z</time></trkpt>
<trkpt lat="51.241792" lon="-2.947477">
<ele>5</ele>
<time>2020-08-03T06:34:10Z</time></trkpt>
<trkpt lat="51.242779" lon="-2.946835">
<ele>7</ele>
<time>2020-08-03T06:35:42Z</time></trkpt>
<trkpt lat="51.243709" lon="-2.946174">
<ele>7</ele>
<time>2020-08-03T06:37:07Z</time></trkpt>
<trkpt lat="51.243825" lon="-2.946069">
<ele>7</ele>
<time>2020-08-03T06:37:17Z</time></trkpt>
<trkpt lat="51.244118" lon="-2.945731">
<ele>7</ele>
<time>2020-08-03T06:37:46Z</time></trkpt>
<trkpt lat="51.244501" lon="-2.945183">
<ele>6</ele>
<time>2020-08-03T06:38:26Z</time></trkpt>
<trkpt lat="51.244767" lon="-2.944679">
<ele>6</ele>
<time>2020-08-03T06:38:58Z</time></trkpt>
<trkpt lat="51.246704" lon="-2.941452">
<ele>5</ele>
<time>2020-08-03T06:42:40Z</time></trkpt>
<trkpt lat="51.247166" lon="-2.940724">
<ele>5</ele>
<time>2020-08-03T06:43:34Z</time></trkpt>
<trkpt lat="51.247567" lon="-2.940182">
<ele>5</ele>
<time>2020-08-03T06:44:19Z</time></trkpt>
<trkpt lat="51.249022" lon="-2.938608">
<ele>6</ele>
<time>2020-08-03T06:46:48Z</time></trkpt>
<trkpt lat="51.250422" lon="-2.937165">
<ele>9</ele>
<time>2020-08-03T06:49:09Z</time></trkpt>
<trkpt lat="51.251436" lon="-2.93605">
<ele>9</ele>
<time>2020-08-03T06:50:49Z</time></trkpt>
<trkpt lat="51.251802" lon="-2.935578">
<ele>9</ele>
<time>2020-08-03T06:51:27Z</time></trkpt>
<trkpt lat="51.252366" lon="-2.934706">
<ele>9</ele>
<time>2020-08-03T06:52:30Z</time></trkpt>
<trkpt lat="51.252549" lon="-2.934468">
<ele>9</ele>
<time>2020-08-03T06:52:49Z</time></trkpt>
<trkpt lat="51.252869" lon="-2.934126">
<ele>8</ele>
<time>2020-08-03T06:53:18Z</time></trkpt>
<trkpt lat="51.253011" lon="-2.934009">
<ele>8</ele>
<time>2020-08-03T06:53:31Z</time></trkpt>
<trkpt lat="51.253366" lon="-2.933788">
<ele>7</ele>
<time>2020-08-03T06:54:00Z</time></trkpt>
<trkpt lat="51.253768" lon="-2.933638">
<ele>7</ele>
<time>2020-08-03T06:54:32Z</time></trkpt>
<trkpt lat="51.25409" lon="-2.933566">
<ele>6</ele>
<time>2020-08-03T06:54:57Z</time></trkpt>
<trkpt lat="51.256081" lon="-2.933279">
<ele>7</ele>
<time>2020-08-03T06:57:42Z</time></trkpt>
<trkpt lat="51.256337" lon="-2.933296">
<ele>7</ele>
<time>2020-08-03T06:58:04Z</time></trkpt>
<trkpt lat="51.256872" lon="-2.933223">
<ele>7</ele>
<time>2020-08-03T06:58:51Z</time></trkpt>
<trkpt lat="51.257034" lon="-2.933261">
<ele>7</ele>
<time>2020-08-03T06:59:05Z</time></trkpt>
<trkpt lat="51.25712" lon="-2.933315">
<ele>8</ele>
<time>2020-08-03T06:59:14Z</time></trkpt>
<trkpt lat="51.257239" lon="-2.933368">
<ele>8</ele>
<time>2020-08-03T06:59:24Z</time></trkpt>
<trkpt lat="51.257368" lon="-2.93335">
<ele>8</ele>
<time>2020-08-03T06:59:35Z</time></trkpt>
<trkpt lat="51.257504" lon="-2.933245">
<ele>8</ele>
<time>2020-08-03T06:59:47Z</time></trkpt>
<trkpt lat="51.257608" lon="-2.933102">
<ele>7</ele>
<time>2020-08-03T06:59:58Z</time></trkpt>
<trkpt lat="51.257641" lon="-2.933027">
<ele>7</ele>
<time>2020-08-03T07:00:02Z</time></trkpt>
<trkpt lat="51.257644" lon="-2.932983">
<ele>7</ele>
<time>2020-08-03T07:00:05Z</time></trkpt>
<trkpt lat="51.25788" lon="-2.932512">
<ele>6</ele>
<time>2020-08-03T07:00:34Z</time></trkpt>
<trkpt lat="51.257954" lon="-2.93233">
<ele>6</ele>
<time>2020-08-03T07:00:45Z</time></trkpt>
<trkpt lat="51.258603" lon="-2.931452">
<ele>6</ele>
<time>2020-08-03T07:01:52Z</time></trkpt>
<trkpt lat="51.259688" lon="-2.929896">
<ele>7</ele>
<time>2020-08-03T07:03:49Z</time></trkpt>
<trkpt lat="51.260053" lon="-2.929301">
<ele>7</ele>
<time>2020-08-03T07:04:32Z</time></trkpt>
<trkpt lat="51.260439" lon="-2.928617">
<ele>6</ele>
<time>2020-08-03T07:05:20Z</time></trkpt>
<trkpt lat="51.260785" lon="-2.927937">
<ele>7</ele>
<time>2020-08-03T07:06:05Z</time></trkpt>
<trkpt lat="51.261916" lon="-2.925442">
<ele>6</ele>
<time>2020-08-03T07:08:39Z</time></trkpt>
<trkpt lat="51.262071" lon="-2.925134">
<ele>6</ele>
<time>2020-08-03T07:08:59Z</time></trkpt>
<trkpt lat="51.26263" lon="-2.923795">
<ele>8</ele>
<time>2020-08-03T07:10:23Z</time></trkpt>
<trkpt lat="51.26302" lon="-2.922598">
<ele>9</ele>
<time>2020-08-03T07:11:35Z</time></trkpt>
<trkpt lat="51.263351" lon="-2.921413">
<ele>9</ele>
<time>2020-08-03T07:12:44Z</time></trkpt>
<trkpt lat="51.263672" lon="-2.920225">
<ele>8</ele>
<time>2020-08-03T07:13:46Z</time></trkpt>
<trkpt lat="51.263822" lon="-2.919444">
<ele>7</ele>
<time>2020-08-03T07:14:26Z</time></trkpt>
<trkpt lat="51.263957" lon="-2.91856">
<ele>6</ele>
<time>2020-08-03T07:15:10Z</time></trkpt>
<trkpt lat="51.264193" lon="-2.916371">
<ele>6</ele>
<time>2020-08-03T07:17:00Z</time></trkpt>
<trkpt lat="51.264356" lon="-2.914355">
<ele>6</ele>
<time>2020-08-03T07:18:42Z</time></trkpt>
<trkpt lat="51.264435" lon="-2.913693">
<ele>7</ele>
<time>2020-08-03T07:19:16Z</time></trkpt>
<trkpt lat="51.264535" lon="-2.913309">
<ele>7</ele>
<time>2020-08-03T07:19:38Z</time></trkpt>
<trkpt lat="51.264747" lon="-2.912677">
<ele>8</ele>
<time>2020-08-03T07:20:15Z</time></trkpt>
<trkpt lat="51.266132" lon="-2.908824">
<ele>7</ele>
<time>2020-08-03T07:24:04Z</time></trkpt>
<trkpt lat="51.266403" lon="-2.907914">
<ele>8</ele>
<time>2020-08-03T07:24:56Z</time></trkpt>
<trkpt lat="51.266525" lon="-2.907394">
<ele>8</ele>
<time>2020-08-03T07:25:24Z</time></trkpt>
<trkpt lat="51.267678" lon="-2.901205">
<ele>8</ele>
<time>2020-08-03T07:30:49Z</time></trkpt>
<trkpt lat="51.268863" lon="-2.895602">
<ele>8</ele>
<time>2020-08-03T07:35:45Z</time></trkpt>
<trkpt lat="51.269047" lon="-2.894607">
<ele>8</ele>
<time>2020-08-03T07:36:36Z</time></trkpt>
<trkpt lat="51.269871" lon="-2.889743">
<ele>8</ele>
<time>2020-08-03T07:40:51Z</time></trkpt>
<trkpt lat="51.269989" lon="-2.888905">
<ele>8</ele>
<time>2020-08-03T07:41:35Z</time></trkpt>
<trkpt lat="51.270079" lon="-2.887273">
<ele>8</ele>
<time>2020-08-03T07:42:58Z</time></trkpt>
<trkpt lat="51.270124" lon="-2.886129">
<ele>9</ele>
<time>2020-08-03T07:43:54Z</time></trkpt>
<trkpt lat="51.270169" lon="-2.885699">
<ele>8</ele>
<time>2020-08-03T07:44:16Z</time></trkpt>
<trkpt lat="51.270247" lon="-2.885314">
<ele>7</ele>
<time>2020-08-03T07:44:36Z</time></trkpt>
<trkpt lat="51.270347" lon="-2.885047">
<ele>7</ele>
<time>2020-08-03T07:44:52Z</time></trkpt>
<trkpt lat="51.270456" lon="-2.884819">
<ele>7</ele>
<time>2020-08-03T07:45:06Z</time></trkpt>
<trkpt lat="51.270589" lon="-2.884596">
<ele>7</ele>
<time>2020-08-03T07:45:21Z</time></trkpt>
<trkpt lat="51.271705" lon="-2.882963">
<ele>7</ele>
<time>2020-08-03T07:47:22Z</time></trkpt>
<trkpt lat="51.271904" lon="-2.882575">
<ele>7</ele>
<time>2020-08-03T07:47:47Z</time></trkpt>
<trkpt lat="51.27201" lon="-2.882324">
<ele>7</ele>
<time>2020-08-03T07:48:03Z</time></trkpt>
<trkpt lat="51.272962" lon="-2.879321">
<ele>7</ele>
<time>2020-08-03T07:50:55Z</time></trkpt>
<trkpt lat="51.273211" lon="-2.878644">
<ele>8</ele>
<time>2020-08-03T07:51:36Z</time></trkpt>
<trkpt lat="51.273441" lon="-2.877872">
<ele>7</ele>
<time>2020-08-03T07:52:19Z</time></trkpt>
<trkpt lat="51.273733" lon="-2.87696">
<ele>7</ele>
<time>2020-08-03T07:53:10Z</time></trkpt>
<trkpt lat="51.27387" lon="-2.87658">
<ele>7</ele>
<time>2020-08-03T07:53:32Z</time></trkpt>
<trkpt lat="51.275373" lon="-2.871868">
<ele>7</ele>
<time>2020-08-03T07:57:56Z</time></trkpt>
<trkpt lat="51.275579" lon="-2.871161">
<ele>7</ele>
<time>2020-08-03T07:58:34Z</time></trkpt>
<trkpt lat="51.275781" lon="-2.870328">
<ele>6</ele>
<time>2020-08-03T07:59:19Z</time></trkpt>
<trkpt lat="51.275833" lon="-2.870002">
<ele>6</ele>
<time>2020-08-03T07:59:36Z</time></trkpt>
<trkpt lat="51.276136" lon="-2.86759">
<ele>7</ele>
<time>2020-08-03T08:01:39Z</time></trkpt>
<trkpt lat="51.276334" lon="-2.866263">
<ele>7</ele>
<time>2020-08-03T08:02:48Z</time></trkpt>
<trkpt lat="51.276962" lon="-2.861139">
<ele>7</ele>
<time>2020-08-03T08:07:09Z</time></trkpt>
<trkpt lat="51.277097" lon="-2.860255">
<ele>7</ele>
<time>2020-08-03T08:07:55Z</time></trkpt>
<trkpt lat="51.277203" lon="-2.85975">
<ele>7</ele>
<time>2020-08-03T08:08:21Z</time></trkpt>
<trkpt lat="51.279249" lon="-2.852393">
<ele>7</ele>
<time>2020-08-03T08:15:06Z</time></trkpt>
<trkpt lat="51.279592" lon="-2.85147">
<ele>8</ele>
<time>2020-08-03T08:16:01Z</time></trkpt>
<trkpt lat="51.279881" lon="-2.850812">
<ele>8</ele>
<time>2020-08-03T08:16:43Z</time></trkpt>
<trkpt lat="51.280644" lon="-2.849416">
<ele>8</ele>
<time>2020-08-03T08:18:17Z</time></trkpt>
<trkpt lat="51.281013" lon="-2.848695">
<ele>8</ele>
<time>2020-08-03T08:19:04Z</time></trkpt>
<trkpt lat="51.284748" lon="-2.841854">
<ele>8</ele>
<time>2020-08-03T08:26:37Z</time></trkpt>
<trkpt lat="51.287485" lon="-2.836892">
<ele>7</ele>
<time>2020-08-03T08:32:20Z</time></trkpt>
<trkpt lat="51.288232" lon="-2.835787">
<ele>10</ele>
<time>2020-08-03T08:33:56Z</time></trkpt>
<trkpt lat="51.288938" lon="-2.834982">
<ele>13</ele>
<time>2020-08-03T08:35:15Z</time></trkpt>
<trkpt lat="51.289718" lon="-2.834133">
<ele>15</ele>
<time>2020-08-03T08:36:39Z</time></trkpt>
<trkpt lat="51.290585" lon="-2.833226">
<ele>15</ele>
<time>2020-08-03T08:38:14Z</time></trkpt>
<trkpt lat="51.291664" lon="-2.832182">
<ele>20</ele>
<time>2020-08-03T08:40:34Z</time></trkpt>
<trkpt lat="51.292008" lon="-2.831922">
<ele>23</ele>
<time>2020-08-03T08:41:16Z</time></trkpt>
<trkpt lat="51.293544" lon="-2.831045">
<ele>37</ele>
<time>2020-08-03T08:44:44Z</time></trkpt>
<trkpt lat="51.295124" lon="-2.830061">
<ele>55</ele>
<time>2020-08-03T08:48:35Z</time></trkpt>
<trkpt lat="51.295997" lon="-2.829298">
<ele>64</ele>
<time>2020-08-03T08:50:37Z</time></trkpt>
<trkpt lat="51.29664" lon="-2.828841">
<ele>71</ele>
<time>2020-08-03T08:52:03Z</time></trkpt>
<trkpt lat="51.297019" lon="-2.828624">
<ele>71</ele>
<time>2020-08-03T08:52:52Z</time></trkpt>
<trkpt lat="51.29728" lon="-2.828506">
<ele>71</ele>
<time>2020-08-03T08:53:20Z</time></trkpt>
<trkpt lat="51.297928" lon="-2.828398">
<ele>71</ele>
<time>2020-08-03T08:54:21Z</time></trkpt>
<trkpt lat="51.298247" lon="-2.828397">
<ele>71</ele>
<time>2020-08-03T08:54:51Z</time></trkpt>
<trkpt lat="51.298504" lon="-2.828432">
<ele>72</ele>
<time>2020-08-03T08:55:16Z</time></trkpt>
<trkpt lat="51.299008" lon="-2.828557">
<ele>75</ele>
<time>2020-08-03T08:56:04Z</time></trkpt>
<trkpt lat="51.299373" lon="-2.828699">
<ele>77</ele>
<time>2020-08-03T08:56:39Z</time></trkpt>
<trkpt lat="51.300763" lon="-2.829392">
<ele>85</ele>
<time>2020-08-03T08:58:53Z</time></trkpt>
<trkpt lat="51.301084" lon="-2.829437">
<ele>84</ele>
<time>2020-08-03T08:59:23Z</time></trkpt>
<trkpt lat="51.301214" lon="-2.82941">
<ele>83</ele>
<time>2020-08-03T08:59:35Z</time></trkpt>
<trkpt lat="51.301334" lon="-2.829355">
<ele>83</ele>
<time>2020-08-03T08:59:46Z</time></trkpt>
<trkpt lat="51.301588" lon="-2.829174">
<ele>82</ele>
<time>2020-08-03T09:00:12Z</time></trkpt>
<trkpt lat="51.301895" lon="-2.828898">
<ele>82</ele>
<time>2020-08-03T09:00:41Z</time></trkpt>
<trkpt lat="51.302571" lon="-2.828462">
<ele>80</ele>
<time>2020-08-03T09:01:31Z</time></trkpt>
<trkpt lat="51.303448" lon="-2.828104">
<ele>71</ele>
<time>2020-08-03T09:02:32Z</time></trkpt>
<trkpt lat="51.304162" lon="-2.827744">
<ele>66</ele>
<time>2020-08-03T09:03:24Z</time></trkpt>
<trkpt lat="51.304746" lon="-2.827417">
<ele>66</ele>
<time>2020-08-03T09:04:13Z</time></trkpt>
<trkpt lat="51.305117" lon="-2.827134">
<ele>67</ele>
<time>2020-08-03T09:04:46Z</time></trkpt>
<trkpt lat="51.305294" lon="-2.826946">
<ele>67</ele>
<time>2020-08-03T09:05:03Z</time></trkpt>
<trkpt lat="51.305449" lon="-2.826734">
<ele>68</ele>
<time>2020-08-03T09:05:20Z</time></trkpt>
<trkpt lat="51.305671" lon="-2.826537">
<ele>67</ele>
<time>2020-08-03T09:05:40Z</time></trkpt>
<trkpt lat="51.306084" lon="-2.826249">
<ele>67</ele>
<time>2020-08-03T09:06:16Z</time></trkpt>
<trkpt lat="51.306655" lon="-2.825921">
<ele>68</ele>
<time>2020-08-03T09:07:04Z</time></trkpt>
<trkpt lat="51.306996" lon="-2.825813">
<ele>67</ele>
<time>2020-08-03T09:07:31Z</time></trkpt>
<trkpt lat="51.307396" lon="-2.82577">
<ele>66</ele>
<time>2020-08-03T09:08:02Z</time></trkpt>
<trkpt lat="51.308411" lon="-2.825821">
<ele>64</ele>
<time>2020-08-03T09:09:21Z</time></trkpt>
<trkpt lat="51.308771" lon="-2.8258">
<ele>64</ele>
<time>2020-08-03T09:09:49Z</time></trkpt>
<trkpt lat="51.309146" lon="-2.825644">
<ele>63</ele>
<time>2020-08-03T09:10:19Z</time></trkpt>
<trkpt lat="51.310168" lon="-2.82497">
<ele>64</ele>
<time>2020-08-03T09:11:46Z</time></trkpt>
<trkpt lat="51.310488" lon="-2.82488">
<ele>63</ele>
<time>2020-08-03T09:12:11Z</time></trkpt>
<trkpt lat="51.310987" lon="-2.824894">
<ele>62</ele>
<time>2020-08-03T09:12:51Z</time></trkpt>
<trkpt lat="51.311486" lon="-2.82486">
<ele>63</ele>
<time>2020-08-03T09:13:45Z</time></trkpt>
<trkpt lat="51.311818" lon="-2.824757">
<ele>64</ele>
<time>2020-08-03T09:14:21Z</time></trkpt>
<trkpt lat="51.312238" lon="-2.824488">
<ele>65</ele>
<time>2020-08-03T09:15:10Z</time></trkpt>
<trkpt lat="51.312552" lon="-2.824199">
<ele>67</ele>
<time>2020-08-03T09:15:49Z</time></trkpt>
<trkpt lat="51.314163" lon="-2.822139">
<ele>83</ele>
<time>2020-08-03T09:19:17Z</time></trkpt>
<trkpt lat="51.314281" lon="-2.821873">
<ele>82</ele>
<time>2020-08-03T09:19:37Z</time></trkpt>
<trkpt lat="51.314432" lon="-2.82137">
<ele>82</ele>
<time>2020-08-03T09:20:11Z</time></trkpt>
<trkpt lat="51.31449" lon="-2.820693">
<ele>82</ele>
<time>2020-08-03T09:20:52Z</time></trkpt>
<trkpt lat="51.314592" lon="-2.820088">
<ele>81</ele>
<time>2020-08-03T09:21:24Z</time></trkpt>
<trkpt lat="51.315101" lon="-2.818448">
<ele>77</ele>
<time>2020-08-03T09:22:48Z</time></trkpt>
<trkpt lat="51.315529" lon="-2.817343">
<ele>72</ele>
<time>2020-08-03T09:23:47Z</time></trkpt>
<trkpt lat="51.315671" lon="-2.817128">
<ele>72</ele>
<time>2020-08-03T09:24:01Z</time></trkpt>
<trkpt lat="51.315763" lon="-2.817051">
<ele>72</ele>
<time>2020-08-03T09:24:11Z</time></trkpt>
<trkpt lat="51.316397" lon="-2.816649">
<ele>78</ele>
<time>2020-08-03T09:25:30Z</time></trkpt>
<trkpt lat="51.316511" lon="-2.816555">
<ele>80</ele>
<time>2020-08-03T09:25:45Z</time></trkpt>
<trkpt lat="51.316694" lon="-2.81637">
<ele>82</ele>
<time>2020-08-03T09:26:10Z</time></trkpt>
<trkpt lat="51.316878" lon="-2.816112">
<ele>84</ele>
<time>2020-08-03T09:26:38Z</time></trkpt>
<trkpt lat="51.31713" lon="-2.815647">
<ele>85</ele>
<time>2020-08-03T09:27:22Z</time></trkpt>
<trkpt lat="51.317659" lon="-2.814771">
<ele>87</ele>
<time>2020-08-03T09:28:49Z</time></trkpt>
<trkpt lat="51.317839" lon="-2.814446">
<ele>88</ele>
<time>2020-08-03T09:29:14Z</time></trkpt>
<trkpt lat="51.318059" lon="-2.813994">
<ele>89</ele>
<time>2020-08-03T09:29:47Z</time></trkpt>
<trkpt lat="51.318521" lon="-2.81279">
<ele>92</ele>
<time>2020-08-03T09:31:08Z</time></trkpt>
<trkpt lat="51.318707" lon="-2.812337">
<ele>93</ele>
<time>2020-08-03T09:31:39Z</time></trkpt>
<trkpt lat="51.318863" lon="-2.812017">
<ele>93</ele>
<time>2020-08-03T09:32:02Z</time></trkpt>
<trkpt lat="51.31905" lon="-2.811694">
<ele>92</ele>
<time>2020-08-03T09:32:27Z</time></trkpt>
<trkpt lat="51.319426" lon="-2.811183">
<ele>93</ele>
<time>2020-08-03T09:33:04Z</time></trkpt>
<trkpt lat="51.319853" lon="-2.81067">
<ele>93</ele>
<time>2020-08-03T09:33:44Z</time></trkpt>
<trkpt lat="51.320137" lon="-2.810278">
<ele>91</ele>
<time>2020-08-03T09:34:13Z</time></trkpt>
<trkpt lat="51.320392" lon="-2.80986">
<ele>89</ele>
<time>2020-08-03T09:34:40Z</time></trkpt>
<trkpt lat="51.320745" lon="-2.809202">
<ele>86</ele>
<time>2020-08-03T09:35:21Z</time></trkpt>
<trkpt lat="51.320955" lon="-2.808611">
<ele>87</ele>
<time>2020-08-03T09:35:53Z</time></trkpt>
<trkpt lat="51.32132" lon="-2.807294">
<ele>86</ele>
<time>2020-08-03T09:37:01Z</time></trkpt>
<trkpt lat="51.321639" lon="-2.806439">
<ele>82</ele>
<time>2020-08-03T09:37:49Z</time></trkpt>
<trkpt lat="51.322036" lon="-2.805099">
<ele>81</ele>
<time>2020-08-03T09:39:07Z</time></trkpt>
<trkpt lat="51.322643" lon="-2.802762">
<ele>87</ele>
<time>2020-08-03T09:41:43Z</time></trkpt>
<trkpt lat="51.323902" lon="-2.797679">
<ele>101</ele>
<time>2020-08-03T09:47:29Z</time></trkpt>
<trkpt lat="51.324011" lon="-2.797267">
<ele>102</ele>
<time>2020-08-03T09:47:55Z</time></trkpt>
<trkpt lat="51.324186" lon="-2.796804">
<ele>103</ele>
<time>2020-08-03T09:48:26Z</time></trkpt>
<trkpt lat="51.32436" lon="-2.79654">
<ele>104</ele>
<time>2020-08-03T09:48:48Z</time></trkpt>
<trkpt lat="51.32457" lon="-2.796373">
<ele>106</ele>
<time>2020-08-03T09:49:09Z</time></trkpt>
<trkpt lat="51.324748" lon="-2.796346">
<ele>106</ele>
<time>2020-08-03T09:49:26Z</time></trkpt>
<trkpt lat="51.325195" lon="-2.796565">
<ele>106</ele>
<time>2020-08-03T09:50:09Z</time></trkpt>
<trkpt lat="51.325785" lon="-2.797266">
<ele>105</ele>
<time>2020-08-03T09:51:06Z</time></trkpt>
<trkpt lat="51.326035" lon="-2.797536">
<ele>106</ele>
<time>2020-08-03T09:51:29Z</time></trkpt>
<trkpt lat="51.326308" lon="-2.797646">
<ele>103</ele>
<time>2020-08-03T09:51:49Z</time></trkpt>
<trkpt lat="51.326814" lon="-2.797746">
<ele>100</ele>
<time>2020-08-03T09:52:27Z</time></trkpt>
<trkpt lat="51.327485" lon="-2.797828">
<ele>96</ele>
<time>2020-08-03T09:53:16Z</time></trkpt>
<trkpt lat="51.327716" lon="-2.797791">
<ele>95</ele>
<time>2020-08-03T09:53:32Z</time></trkpt>
<trkpt lat="51.328048" lon="-2.797671">
<ele>94</ele>
<time>2020-08-03T09:53:53Z</time></trkpt>
<trkpt lat="51.328681" lon="-2.797105">
<ele>86</ele>
<time>2020-08-03T09:54:38Z</time></trkpt>
<trkpt lat="51.329458" lon="-2.796484">
<ele>75</ele>
<time>2020-08-03T09:55:31Z</time></trkpt>
<trkpt lat="51.3306918" lon="-2.7955286">
<ele>65</ele>
<time>2020-08-03T09:57:03Z</time></trkpt>
<trkpt lat="51.331254" lon="-2.795073">
<ele>62</ele>
<time>2020-08-03T09:57:47Z</time></trkpt>
<trkpt lat="51.332215" lon="-2.794542">
<ele>60</ele>
<time>2020-08-03T09:58:59Z</time></trkpt>
<trkpt lat="51.334374" lon="-2.793885">
<ele>53</ele>
<time>2020-08-03T10:01:43Z</time></trkpt>
<trkpt lat="51.334902" lon="-2.793397">
<ele>52</ele>
<time>2020-08-03T10:02:29Z</time></trkpt>
<trkpt lat="51.335853" lon="-2.791936">
<ele>49</ele>
<time>2020-08-03T10:04:09Z</time></trkpt>
<trkpt lat="51.337788" lon="-2.787999">
<ele>43</ele>
<time>2020-08-03T10:08:09Z</time></trkpt>
<trkpt lat="51.339356" lon="-2.783304">
<ele>37</ele>
<time>2020-08-03T10:12:24Z</time></trkpt>
<trkpt lat="51.339676" lon="-2.778391">
<ele>33</ele>
<time>2020-08-03T10:16:22Z</time></trkpt>
<trkpt lat="51.33894" lon="-2.770991">
<ele>29</ele>
<time>2020-08-03T10:22:36Z</time></trkpt>
<trkpt lat="51.339028" lon="-2.767872">
<ele>31</ele>
<time>2020-08-03T10:25:28Z</time></trkpt>
<trkpt lat="51.339426" lon="-2.765867">
<ele>34</ele>
<time>2020-08-03T10:27:26Z</time></trkpt>
<trkpt lat="51.341125" lon="-2.759814">
<ele>33</ele>
<time>2020-08-03T10:33:00Z</time></trkpt>
<trkpt lat="51.341745" lon="-2.75823">
<ele>34</ele>
<time>2020-08-03T10:34:36Z</time></trkpt>
<trkpt lat="51.342137" lon="-2.756252">
<ele>36</ele>
<time>2020-08-03T10:36:23Z</time></trkpt>
<trkpt lat="51.344441" lon="-2.753725">
<ele>36</ele>
<time>2020-08-03T10:40:08Z</time></trkpt>
<trkpt lat="51.345865" lon="-2.751079">
<ele>34</ele>
<time>2020-08-03T10:42:58Z</time></trkpt>
<trkpt lat="51.347349" lon="-2.74998">
<ele>25</ele>
<time>2020-08-03T10:45:01Z</time></trkpt>
<trkpt lat="51.348715" lon="-2.748708">
<ele>24</ele>
<time>2020-08-03T10:46:58Z</time></trkpt>
<trkpt lat="51.349755" lon="-2.74814">
<ele>22</ele>
<time>2020-08-03T10:48:23Z</time></trkpt>
<trkpt lat="51.350609" lon="-2.74794">
<ele>20</ele>
<time>2020-08-03T10:49:29Z</time></trkpt>
<trkpt lat="51.353119" lon="-2.746314">
<ele>20</ele>
<time>2020-08-03T10:53:06Z</time></trkpt>
<trkpt lat="51.353824" lon="-2.745545">
<ele>22</ele>
<time>2020-08-03T10:54:28Z</time></trkpt>
<trkpt lat="51.354773" lon="-2.743281">
<ele>28</ele>
<time>2020-08-03T10:57:13Z</time></trkpt>
<trkpt lat="51.3553" lon="-2.740837">
<ele>33</ele>
<time>2020-08-03T10:59:49Z</time></trkpt>
<trkpt lat="51.355652" lon="-2.738153">
<ele>37</ele>
<time>2020-08-03T11:02:34Z</time></trkpt>
<trkpt lat="51.355997" lon="-2.73692">
<ele>40</ele>
<time>2020-08-03T11:03:55Z</time></trkpt>
<trkpt lat="51.357961" lon="-2.733336">
<ele>48</ele>
<time>2020-08-03T11:08:38Z</time></trkpt>
<trkpt lat="51.359191" lon="-2.72932">
<ele>66</ele>
<time>2020-08-03T11:14:00Z</time></trkpt>
<trkpt lat="51.360178" lon="-2.726819">
<ele>71</ele>
<time>2020-08-03T11:17:07Z</time></trkpt>
<trkpt lat="51.360827" lon="-2.725633">
<ele>80</ele>
<time>2020-08-03T11:19:16Z</time></trkpt>
<trkpt lat="51.362442" lon="-2.723777">
<ele>100</ele>
<time>2020-08-03T11:23:47Z</time></trkpt>
<trkpt lat="51.364656" lon="-2.722199">
<ele>126</ele>
<time>2020-08-03T11:29:16Z</time></trkpt>
<trkpt lat="51.366093" lon="-2.721621">
<ele>139</ele>
<time>2020-08-03T11:32:31Z</time></trkpt>
<trkpt lat="51.367804" lon="-2.719881">
<ele>155</ele>
<time>2020-08-03T11:36:48Z</time></trkpt>
<trkpt lat="51.368253" lon="-2.719055">
<ele>158</ele>
<time>2020-08-03T11:38:13Z</time></trkpt>
<trkpt lat="51.369255" lon="-2.715854">
<ele>167</ele>
<time>2020-08-03T11:41:56Z</time></trkpt>
<trkpt lat="51.369967" lon="-2.714312">
<ele>171</ele>
<time>2020-08-03T11:43:41Z</time></trkpt>
<trkpt lat="51.373858" lon="-2.709566">
<ele>168</ele>
<time>2020-08-03T11:50:34Z</time></trkpt>
<trkpt lat="51.374717" lon="-2.708967">
<ele>175</ele>
<time>2020-08-03T11:52:23Z</time></trkpt>
<trkpt lat="51.376269" lon="-2.708608">
<ele>182</ele>
<time>2020-08-03T11:55:05Z</time></trkpt>
<trkpt lat="51.37849" lon="-2.707017">
<ele>185</ele>
<time>2020-08-03T11:58:41Z</time></trkpt>
<trkpt lat="51.379118" lon="-2.706901">
<ele>184</ele>
<time>2020-08-03T11:59:31Z</time></trkpt>
<trkpt lat="51.379272" lon="-2.706907">
<ele>184</ele>
<time>2020-08-03T11:59:43Z</time></trkpt>
<trkpt lat="51.379469" lon="-2.706328">
<ele>184</ele>
<time>2020-08-03T12:00:16Z</time></trkpt>
<trkpt lat="51.379613" lon="-2.703964">
<ele>184</ele>
<time>2020-08-03T12:02:17Z</time></trkpt>
<trkpt lat="51.379907" lon="-2.70295">
<ele>184</ele>
<time>2020-08-03T12:03:15Z</time></trkpt>
<trkpt lat="51.380425" lon="-2.701925">
<ele>185</ele>
<time>2020-08-03T12:04:22Z</time></trkpt>
<trkpt lat="51.381244" lon="-2.700969">
<ele>187</ele>
<time>2020-08-03T12:05:46Z</time></trkpt>
<trkpt lat="51.382473" lon="-2.70033">
<ele>186</ele>
<time>2020-08-03T12:07:32Z</time></trkpt>
<trkpt lat="51.383366" lon="-2.700271">
<ele>186</ele>
<time>2020-08-03T12:08:41Z</time></trkpt>
<trkpt lat="51.384539" lon="-2.700673">
<ele>183</ele>
<time>2020-08-03T12:10:14Z</time></trkpt>
<trkpt lat="51.385123" lon="-2.701085">
<ele>182</ele>
<time>2020-08-03T12:11:02Z</time></trkpt>
<trkpt lat="51.385542" lon="-2.701697">
<ele>180</ele>
<time>2020-08-03T12:11:44Z</time></trkpt>
<trkpt lat="51.385593" lon="-2.701814">
<ele>180</ele>
<time>2020-08-03T12:11:51Z</time></trkpt>
<trkpt lat="51.38589" lon="-2.701791">
<ele>179</ele>
<time>2020-08-03T12:12:13Z</time></trkpt>
<trkpt lat="51.388553" lon="-2.699838">
<ele>165</ele>
<time>2020-08-03T12:15:50Z</time></trkpt>
<trkpt lat="51.38987" lon="-2.699341">
<ele>169</ele>
<time>2020-08-03T12:18:03Z</time></trkpt>
<trkpt lat="51.391067" lon="-2.69782">
<ele>182</ele>
<time>2020-08-03T12:20:59Z</time></trkpt>
<trkpt lat="51.392564" lon="-2.696521">
<ele>187</ele>
<time>2020-08-03T12:23:19Z</time></trkpt>
<trkpt lat="51.393936" lon="-2.693592">
<ele>178</ele>
<time>2020-08-03T12:26:14Z</time></trkpt>
<trkpt lat="51.395098" lon="-2.691737">
<ele>176</ele>
<time>2020-08-03T12:28:26Z</time></trkpt>
<trkpt lat="51.395407" lon="-2.690972">
<ele>178</ele>
<time>2020-08-03T12:29:17Z</time></trkpt>
<trkpt lat="51.396118" lon="-2.686894">
<ele>175</ele>
<time>2020-08-03T12:32:46Z</time></trkpt>
<trkpt lat="51.39623" lon="-2.683922">
<ele>166</ele>
<time>2020-08-03T12:34:58Z</time></trkpt>
<trkpt lat="51.398263" lon="-2.677736">
<ele>139</ele>
<time>2020-08-03T12:39:58Z</time></trkpt>
<trkpt lat="51.399438" lon="-2.674904">
<ele>126</ele>
<time>2020-08-03T12:42:23Z</time></trkpt>
<trkpt lat="51.401023" lon="-2.673054">
<ele>116</ele>
<time>2020-08-03T12:44:44Z</time></trkpt>
<trkpt lat="51.401228" lon="-2.673332">
<ele>117</ele>
<time>2020-08-03T12:45:03Z</time></trkpt>
<trkpt lat="51.403091" lon="-2.674244">
<ele>117</ele>
<time>2020-08-03T12:47:37Z</time></trkpt>
<trkpt lat="51.404314" lon="-2.674274">
<ele>114</ele>
<time>2020-08-03T12:49:06Z</time></trkpt>
<trkpt lat="51.404626" lon="-2.674145">
<ele>112</ele>
<time>2020-08-03T12:49:27Z</time></trkpt>
<trkpt lat="51.405527" lon="-2.674314">
<ele>105</ele>
<time>2020-08-03T12:50:27Z</time></trkpt>
<trkpt lat="51.40634" lon="-2.674158">
<ele>95</ele>
<time>2020-08-03T12:51:22Z</time></trkpt>
<trkpt lat="51.407104" lon="-2.674438">
<ele>87</ele>
<time>2020-08-03T12:52:14Z</time></trkpt>
<trkpt lat="51.407311" lon="-2.67472">
<ele>85</ele>
<time>2020-08-03T12:52:33Z</time></trkpt>
<trkpt lat="51.407865" lon="-2.674851">
<ele>83</ele>
<time>2020-08-03T12:53:10Z</time></trkpt>
<trkpt lat="51.407924" lon="-2.674697">
<ele>83</ele>
<time>2020-08-03T12:53:18Z</time></trkpt>
<trkpt lat="51.408475" lon="-2.674611">
<ele>84</ele>
<time>2020-08-03T12:53:56Z</time></trkpt>
<trkpt lat="51.409744" lon="-2.673562">
<ele>86</ele>
<time>2020-08-03T12:55:48Z</time></trkpt>
<trkpt lat="51.410401" lon="-2.672587">
<ele>81</ele>
<time>2020-08-03T12:56:59Z</time></trkpt>
<trkpt lat="51.411749" lon="-2.671374">
<ele>72</ele>
<time>2020-08-03T12:58:50Z</time></trkpt>
<trkpt lat="51.412131" lon="-2.671166">
<ele>71</ele>
<time>2020-08-03T12:59:19Z</time></trkpt>
<trkpt lat="51.412852" lon="-2.671503">
<ele>71</ele>
<time>2020-08-03T13:00:19Z</time></trkpt>
<trkpt lat="51.413693" lon="-2.671619">
<ele>71</ele>
<time>2020-08-03T13:01:36Z</time></trkpt>
<trkpt lat="51.414189" lon="-2.670936">
<ele>72</ele>
<time>2020-08-03T13:02:36Z</time></trkpt>
<trkpt lat="51.4158" lon="-2.669422">
<ele>78</ele>
<time>2020-08-03T13:05:16Z</time></trkpt>
<trkpt lat="51.416362" lon="-2.670342">
<ele>78</ele>
<time>2020-08-03T13:06:22Z</time></trkpt>
<trkpt lat="51.417251" lon="-2.671284">
<ele>74</ele>
<time>2020-08-03T13:07:44Z</time></trkpt>
<trkpt lat="51.419418" lon="-2.671895">
<ele>69</ele>
<time>2020-08-03T13:10:24Z</time></trkpt>
<trkpt lat="51.420583" lon="-2.671088">
<ele>64</ele>
<time>2020-08-03T13:11:51Z</time></trkpt>
<trkpt lat="51.421128" lon="-2.671127">
<ele>57</ele>
<time>2020-08-03T13:12:29Z</time></trkpt>
<trkpt lat="51.421729" lon="-2.671476">
<ele>50</ele>
<time>2020-08-03T13:13:16Z</time></trkpt>
<trkpt lat="51.422982" lon="-2.672618">
<ele>47</ele>
<time>2020-08-03T13:15:04Z</time></trkpt>
<trkpt lat="51.423823" lon="-2.672369">
<ele>50</ele>
<time>2020-08-03T13:16:13Z</time></trkpt>
<trkpt lat="51.42491" lon="-2.672644">
<ele>49</ele>
<time>2020-08-03T13:17:49Z</time></trkpt>
<trkpt lat="51.425995" lon="-2.673665">
<ele>52</ele>
<time>2020-08-03T13:19:38Z</time></trkpt>
<trkpt lat="51.426938" lon="-2.672367">
<ele>55</ele>
<time>2020-08-03T13:21:27Z</time></trkpt>
<trkpt lat="51.427402" lon="-2.671439">
<ele>55</ele>
<time>2020-08-03T13:22:31Z</time></trkpt>
<trkpt lat="51.428879" lon="-2.666701">
<ele>46</ele>
<time>2020-08-03T13:26:53Z</time></trkpt>
<trkpt lat="51.429168" lon="-2.66453">
<ele>53</ele>
<time>2020-08-03T13:29:04Z</time></trkpt>
<trkpt lat="51.430329" lon="-2.659053">
<ele>50</ele>
<time>2020-08-03T13:33:51Z</time></trkpt>
<trkpt lat="51.430575" lon="-2.656742">
<ele>46</ele>
<time>2020-08-03T13:35:39Z</time></trkpt>
<trkpt lat="51.431386" lon="-2.654455">
<ele>45</ele>
<time>2020-08-03T13:37:48Z</time></trkpt>
<trkpt lat="51.431936" lon="-2.652129">
<ele>42</ele>
<time>2020-08-03T13:39:51Z</time></trkpt>
<trkpt lat="51.432903" lon="-2.650151">
<ele>42</ele>
<time>2020-08-03T13:41:54Z</time></trkpt>
<trkpt lat="51.433482" lon="-2.649277">
<ele>40</ele>
<time>2020-08-03T13:42:54Z</time></trkpt>
<trkpt lat="51.435119" lon="-2.647596">
<ele>37</ele>
<time>2020-08-03T13:45:20Z</time></trkpt>
<trkpt lat="51.436305" lon="-2.645426">
<ele>33</ele>
<time>2020-08-03T13:47:37Z</time></trkpt>
<trkpt lat="51.437517" lon="-2.643666">
<ele>28</ele>
<time>2020-08-03T13:49:44Z</time></trkpt>
<trkpt lat="51.437731" lon="-2.643387">
<ele>28</ele>
<time>2020-08-03T13:50:06Z</time></trkpt>
<trkpt lat="51.437919" lon="-2.643384">
<ele>29</ele>
<time>2020-08-03T13:50:21Z</time></trkpt>
<trkpt lat="51.437876" lon="-2.643013">
<ele>28</ele>
<time>2020-08-03T13:50:39Z</time></trkpt>
<trkpt lat="51.437973" lon="-2.642837">
<ele>28</ele>
<time>2020-08-03T13:50:51Z</time></trkpt>
<trkpt lat="51.440031" lon="-2.640597">
<ele>29</ele>
<time>2020-08-03T13:54:14Z</time></trkpt>
<trkpt lat="51.442099" lon="-2.640302">
<ele>40</ele>
<time>2020-08-03T13:57:41Z</time></trkpt>
<trkpt lat="51.443162" lon="-2.640422">
<ele>41</ele>
<time>2020-08-03T13:59:34Z</time></trkpt>
<trkpt lat="51.443748" lon="-2.639738">
<ele>43</ele>
<time>2020-08-03T14:00:56Z</time></trkpt>
<trkpt lat="51.444159" lon="-2.639399">
<ele>46</ele>
<time>2020-08-03T14:01:48Z</time></trkpt>
<trkpt lat="51.444636" lon="-2.640814">
<ele>56</ele>
<time>2020-08-03T14:03:46Z</time></trkpt>
<trkpt lat="51.445405" lon="-2.641386">
<ele>71</ele>
<time>2020-08-03T14:06:08Z</time></trkpt>
<trkpt lat="51.446208" lon="-2.642313">
<ele>84</ele>
<time>2020-08-03T14:08:53Z</time></trkpt>
<trkpt lat="51.447103" lon="-2.642573">
<ele>96</ele>
<time>2020-08-03T14:11:02Z</time></trkpt>
<trkpt lat="51.44866" lon="-2.642832">
<ele>104</ele>
<time>2020-08-03T14:13:55Z</time></trkpt>
<trkpt lat="51.44897" lon="-2.642703">
<ele>105</ele>
<time>2020-08-03T14:14:30Z</time></trkpt>
<trkpt lat="51.450818" lon="-2.639089">
<ele>110</ele>
<time>2020-08-03T14:18:48Z</time></trkpt>
<trkpt lat="51.451533" lon="-2.637275">
<ele>107</ele>
<time>2020-08-03T14:20:26Z</time></trkpt>
<trkpt lat="51.451574" lon="-2.636444">
<ele>100</ele>
<time>2020-08-03T14:21:04Z</time></trkpt>
<trkpt lat="51.451804" lon="-2.636409">
<ele>102</ele>
<time>2020-08-03T14:21:21Z</time></trkpt>
<trkpt lat="51.452978" lon="-2.631543">
<ele>88</ele>
<time>2020-08-03T14:25:16Z</time></trkpt>
<trkpt lat="51.454019" lon="-2.630212">
<ele>86</ele>
<time>2020-08-03T14:26:53Z</time></trkpt>
<trkpt lat="51.455802" lon="-2.625673">
<ele>83</ele>
<time>2020-08-03T14:31:35Z</time></trkpt>
<trkpt lat="51.455882" lon="-2.625503">
<ele>85</ele>
<time>2020-08-03T14:31:55Z</time></trkpt>
<trkpt lat="51.456001" lon="-2.62523">
<ele>88</ele>
<time>2020-08-03T14:32:26Z</time></trkpt>
<trkpt lat="51.455977" lon="-2.624412">
<ele>87</ele>
<time>2020-08-03T14:33:43Z</time></trkpt>
<trkpt lat="51.456021" lon="-2.624272">
<ele>88</ele>
<time>2020-08-03T14:33:58Z</time></trkpt>
<trkpt lat="51.457476" lon="-2.624543">
<ele>95</ele>
<time>2020-08-03T14:36:45Z</time></trkpt>
<trkpt lat="51.457891" lon="-2.625981">
<ele>91</ele>
<time>2020-08-03T14:37:55Z</time></trkpt>
<trkpt lat="51.458466" lon="-2.626553">
<ele>85</ele>
<time>2020-08-03T14:38:43Z</time></trkpt>
<trkpt lat="51.459128" lon="-2.626881">
<ele>78</ele>
<time>2020-08-03T14:39:32Z</time></trkpt>
<trkpt lat="51.460173" lon="-2.627125">
<ele>76</ele>
<time>2020-08-03T14:40:47Z</time></trkpt>
<trkpt lat="51.462323" lon="-2.626178">
<ele>72</ele>
<time>2020-08-03T14:43:56Z</time></trkpt>
<trkpt lat="51.462588" lon="-2.6264">
<ele>73</ele>
<time>2020-08-03T14:44:23Z</time></trkpt>
<trkpt lat="51.462738" lon="-2.626172">
<ele>75</ele>
<time>2020-08-03T14:44:42Z</time></trkpt>
<trkpt lat="51.463184" lon="-2.627206">
<ele>81</ele>
<time>2020-08-03T14:45:58Z</time></trkpt>
<trkpt lat="51.4635" lon="-2.627351">
<ele>84</ele>
<time>2020-08-03T14:46:32Z</time></trkpt>
<trkpt lat="51.464945" lon="-2.626824">
<ele>88</ele>
<time>2020-08-03T14:49:05Z</time></trkpt>
<trkpt lat="51.466367" lon="-2.625653">
<ele>89</ele>
<time>2020-08-03T14:51:23Z</time></trkpt>
<trkpt lat="51.466491" lon="-2.625687">
<ele>89</ele>
<time>2020-08-03T14:51:34Z</time></trkpt>
<trkpt lat="51.467986" lon="-2.625899">
<ele>89</ele>
<time>2020-08-03T14:53:36Z</time></trkpt>
<trkpt lat="51.470359" lon="-2.625921">
<ele>89</ele>
<time>2020-08-03T14:56:49Z</time></trkpt>
<trkpt lat="51.472148" lon="-2.625384">
<ele>91</ele>
<time>2020-08-03T14:59:28Z</time></trkpt>
<trkpt lat="51.473537" lon="-2.625152">
<ele>94</ele>
<time>2020-08-03T15:01:27Z</time></trkpt>
<trkpt lat="51.475321" lon="-2.623658">
<ele>94</ele>
<time>2020-08-03T15:04:15Z</time></trkpt>
<trkpt lat="51.47596" lon="-2.622927">
<ele>95</ele>
<time>2020-08-03T15:05:20Z</time></trkpt>
<trkpt lat="51.477676" lon="-2.620099">
<ele>91</ele>
<time>2020-08-03T15:08:31Z</time></trkpt>
<trkpt lat="51.479521" lon="-2.618248">
<ele>86</ele>
<time>2020-08-03T15:11:19Z</time></trkpt>
<trkpt lat="51.479552" lon="-2.616986">
<ele>87</ele>
<time>2020-08-03T15:12:21Z</time></trkpt>
<trkpt lat="51.479634" lon="-2.616813">
<ele>87</ele>
<time>2020-08-03T15:12:31Z</time></trkpt>
<trkpt lat="51.484108" lon="-2.616536">
<ele>79</ele>
<time>2020-08-03T15:18:14Z</time></trkpt>
<trkpt lat="51.484226" lon="-2.616446">
<ele>79</ele>
<time>2020-08-03T15:18:24Z</time></trkpt>
<trkpt lat="51.484854" lon="-2.615829">
<ele>79</ele>
<time>2020-08-03T15:19:19Z</time></trkpt>
<trkpt lat="51.485317" lon="-2.615608">
<ele>78</ele>
<time>2020-08-03T15:19:55Z</time></trkpt>
<trkpt lat="51.4859" lon="-2.615768">
<ele>75</ele>
<time>2020-08-03T15:20:39Z</time></trkpt>
<trkpt lat="51.486545" lon="-2.61632">
<ele>72</ele>
<time>2020-08-03T15:21:34Z</time></trkpt>
<trkpt lat="51.48665" lon="-2.616401">
<ele>72</ele>
<time>2020-08-03T15:21:42Z</time></trkpt>
<trkpt lat="51.48786" lon="-2.617246">
<ele>66</ele>
<time>2020-08-03T15:23:21Z</time></trkpt>
<trkpt lat="51.487911" lon="-2.617171">
<ele>66</ele>
<time>2020-08-03T15:23:27Z</time></trkpt>
<trkpt lat="51.489937" lon="-2.616882">
<ele>62</ele>
<time>2020-08-03T15:25:51Z</time></trkpt>
<trkpt lat="51.489978" lon="-2.617106">
<ele>61</ele>
<time>2020-08-03T15:26:01Z</time></trkpt>
<trkpt lat="51.492323" lon="-2.619313">
<ele>35</ele>
<time>2020-08-03T15:29:05Z</time></trkpt>
<trkpt lat="51.493052" lon="-2.618623">
<ele>36</ele>
<time>2020-08-03T15:30:05Z</time></trkpt>
<trkpt lat="51.494266" lon="-2.618568">
<ele>33</ele>
<time>2020-08-03T15:31:39Z</time></trkpt>
<trkpt lat="51.494839" lon="-2.617938">
<ele>31</ele>
<time>2020-08-03T15:32:34Z</time></trkpt>
<trkpt lat="51.495593" lon="-2.616563">
<ele>36</ele>
<time>2020-08-03T15:34:14Z</time></trkpt>
<trkpt lat="51.496597" lon="-2.617171">
<ele>38</ele>
<time>2020-08-03T15:36:07Z</time></trkpt>
<trkpt lat="51.496654" lon="-2.617138">
<ele>39</ele>
<time>2020-08-03T15:36:14Z</time></trkpt>
<trkpt lat="51.497425" lon="-2.615816">
<ele>46</ele>
<time>2020-08-03T15:38:15Z</time></trkpt>
<trkpt lat="51.49754" lon="-2.615855">
<ele>46</ele>
<time>2020-08-03T15:38:29Z</time></trkpt>
<trkpt lat="51.497524" lon="-2.61592">
<ele>46</ele>
<time>2020-08-03T15:38:34Z</time></trkpt>
<trkpt lat="51.498113" lon="-2.616181">
<ele>51</ele>
<time>2020-08-03T15:39:46Z</time></trkpt>
<trkpt lat="51.498237" lon="-2.616418">
<ele>51</ele>
<time>2020-08-03T15:40:09Z</time></trkpt>
<trkpt lat="51.498444" lon="-2.616307">
<ele>53</ele>
<time>2020-08-03T15:40:35Z</time></trkpt>
<trkpt lat="51.500445" lon="-2.616673">
<ele>64</ele>
<time>2020-08-03T15:44:18Z</time></trkpt>
<trkpt lat="51.503368" lon="-2.615417">
<ele>81</ele>
<time>2020-08-03T15:49:35Z</time></trkpt>
<trkpt lat="51.50433" lon="-2.615172">
<ele>81</ele>
<time>2020-08-03T15:51:13Z</time></trkpt>
<trkpt lat="51.508389" lon="-2.616992">
<ele>53</ele>
<time>2020-08-03T15:55:56Z</time></trkpt>
<trkpt lat="51.509533" lon="-2.617893">
<ele>49</ele>
<time>2020-08-03T15:57:29Z</time></trkpt>
<trkpt lat="51.509646" lon="-2.618127">
<ele>48</ele>
<time>2020-08-03T15:57:43Z</time></trkpt>
<trkpt lat="51.509695" lon="-2.618251">
<ele>47</ele>
<time>2020-08-03T15:57:49Z</time></trkpt>
<trkpt lat="51.509962" lon="-2.618326">
<ele>46</ele>
<time>2020-08-03T15:58:09Z</time></trkpt>
<trkpt lat="51.51061" lon="-2.619177">
<ele>44</ele>
<time>2020-08-03T15:59:11Z</time></trkpt>
<trkpt lat="51.511104" lon="-2.619561">
<ele>43</ele>
<time>2020-08-03T15:59:52Z</time></trkpt>
<trkpt lat="51.513146" lon="-2.619683">
<ele>39</ele>
<time>2020-08-03T16:02:29Z</time></trkpt>
<trkpt lat="51.514308" lon="-2.620082">
<ele>39</ele>
<time>2020-08-03T16:04:04Z</time></trkpt>
<trkpt lat="51.518031" lon="-2.622767">
<ele>41</ele>
<time>2020-08-03T16:09:33Z</time></trkpt>
<trkpt lat="51.51818" lon="-2.622911">
<ele>41</ele>
<time>2020-08-03T16:09:48Z</time></trkpt>
<trkpt lat="51.523678" lon="-2.616836">
<ele>58</ele>
<time>2020-08-03T16:20:29Z</time></trkpt>
<trkpt lat="51.524548" lon="-2.615602">
<ele>63</ele>
<time>2020-08-03T16:22:13Z</time></trkpt>
<trkpt lat="51.52512" lon="-2.615284">
<ele>65</ele>
<time>2020-08-03T16:23:06Z</time></trkpt>
<trkpt lat="51.525397" lon="-2.614942">
<ele>63</ele>
<time>2020-08-03T16:23:36Z</time></trkpt>
<trkpt lat="51.526354" lon="-2.613397">
<ele>63</ele>
<time>2020-08-03T16:25:36Z</time></trkpt>
<trkpt lat="51.527549" lon="-2.61063">
<ele>64</ele>
<time>2020-08-03T16:28:38Z</time></trkpt>
<trkpt lat="51.5281" lon="-2.610513">
<ele>66</ele>
<time>2020-08-03T16:29:22Z</time></trkpt>
<trkpt lat="51.528921" lon="-2.610723">
<ele>66</ele>
<time>2020-08-03T16:30:28Z</time></trkpt>
<trkpt lat="51.531432" lon="-2.608515">
<ele>66</ele>
<time>2020-08-03T16:34:22Z</time></trkpt>
<trkpt lat="51.533093" lon="-2.608503">
<ele>55</ele>
<time>2020-08-03T16:36:09Z</time></trkpt>
<trkpt lat="51.533592" lon="-2.608783">
<ele>48</ele>
<time>2020-08-03T16:36:43Z</time></trkpt>
<trkpt lat="51.533951" lon="-2.609207">
<ele>43</ele>
<time>2020-08-03T16:37:11Z</time></trkpt>
<trkpt lat="51.536037" lon="-2.613331">
<ele>20</ele>
<time>2020-08-03T16:40:51Z</time></trkpt>
<trkpt lat="51.537843" lon="-2.616151">
<ele>11</ele>
<time>2020-08-03T16:43:54Z</time></trkpt>
<trkpt lat="51.539744" lon="-2.618719">
<ele>9</ele>
<time>2020-08-03T16:47:07Z</time></trkpt>
<trkpt lat="51.542142" lon="-2.623416">
<ele>7</ele>
<time>2020-08-03T16:52:04Z</time></trkpt>
<trkpt lat="51.547333" lon="-2.628118">
<ele>5</ele>
<time>2020-08-03T17:00:03Z</time></trkpt>
<trkpt lat="51.547574" lon="-2.628436">
<ele>5</ele>
<time>2020-08-03T17:00:28Z</time></trkpt>
<trkpt lat="51.549022" lon="-2.632484">
<ele>6</ele>
<time>2020-08-03T17:04:25Z</time></trkpt>
<trkpt lat="51.550025" lon="-2.633121">
<ele>6</ele>
<time>2020-08-03T17:05:52Z</time></trkpt>
<trkpt lat="51.551567" lon="-2.632156">
<ele>6</ele>
<time>2020-08-03T17:08:04Z</time></trkpt>
<trkpt lat="51.552018" lon="-2.63219">
<ele>6</ele>
<time>2020-08-03T17:08:40Z</time></trkpt>
<trkpt lat="51.555161" lon="-2.634316">
<ele>7</ele>
<time>2020-08-03T17:13:18Z</time></trkpt>
<trkpt lat="51.55707" lon="-2.637173">
<ele>7</ele>
<time>2020-08-03T17:16:52Z</time></trkpt>
<trkpt lat="51.558181" lon="-2.638448">
<ele>7</ele>
<time>2020-08-03T17:18:41Z</time></trkpt>
<trkpt lat="51.559559" lon="-2.638746">
<ele>7</ele>
<time>2020-08-03T17:20:32Z</time></trkpt>
<trkpt lat="51.560703" lon="-2.63818">
<ele>7</ele>
<time>2020-08-03T17:22:08Z</time></trkpt>
<trkpt lat="51.561858" lon="-2.638614">
<ele>6</ele>
<time>2020-08-03T17:23:43Z</time></trkpt>
<trkpt lat="51.562141" lon="-2.63891">
<ele>6</ele>
<time>2020-08-03T17:24:10Z</time></trkpt>
<trkpt lat="51.563329" lon="-2.642196">
<ele>7</ele>
<time>2020-08-03T17:27:20Z</time></trkpt>
<trkpt lat="51.563457" lon="-2.642349">
<ele>7</ele>
<time>2020-08-03T17:27:32Z</time></trkpt>
<trkpt lat="51.563741" lon="-2.642454">
<ele>7</ele>
<time>2020-08-03T17:27:56Z</time></trkpt>
<trkpt lat="51.565082" lon="-2.641182">
<ele>8</ele>
<time>2020-08-03T17:30:04Z</time></trkpt>
<trkpt lat="51.566782" lon="-2.641981">
<ele>7</ele>
<time>2020-08-03T17:32:26Z</time></trkpt>
<trkpt lat="51.567064" lon="-2.641926">
<ele>7</ele>
<time>2020-08-03T17:32:48Z</time></trkpt>
<trkpt lat="51.568136" lon="-2.640072">
<ele>6</ele>
<time>2020-08-03T17:34:54Z</time></trkpt>
<trkpt lat="51.568921" lon="-2.639468">
<ele>7</ele>
<time>2020-08-03T17:36:05Z</time></trkpt>
<trkpt lat="51.568976" lon="-2.636594">
<ele>10</ele>
<time>2020-08-03T17:38:31Z</time></trkpt>
<trkpt lat="51.570421" lon="-2.637167">
<ele>7</ele>
<time>2020-08-03T17:40:30Z</time></trkpt>
<trkpt lat="51.571189" lon="-2.637029">
<ele>6</ele>
<time>2020-08-03T17:41:32Z</time></trkpt>
<trkpt lat="51.572226" lon="-2.636108">
<ele>6</ele>
<time>2020-08-03T17:43:06Z</time></trkpt>
<trkpt lat="51.573333" lon="-2.635671">
<ele>5</ele>
<time>2020-08-03T17:44:36Z</time></trkpt>
<trkpt lat="51.574933" lon="-2.634015">
<ele>6</ele>
<time>2020-08-03T17:47:09Z</time></trkpt>
<trkpt lat="51.57529" lon="-2.634195">
<ele>6</ele>
<time>2020-08-03T17:47:39Z</time></trkpt>
<trkpt lat="51.575874" lon="-2.635328">
<ele>5</ele>
<time>2020-08-03T17:48:52Z</time></trkpt>
<trkpt lat="51.576854" lon="-2.635875">
<ele>6</ele>
<time>2020-08-03T17:50:15Z</time></trkpt>
<trkpt lat="51.577571" lon="-2.637134">
<ele>7</ele>
<time>2020-08-03T17:51:42Z</time></trkpt>
<trkpt lat="51.578226" lon="-2.639191">
<ele>7</ele>
<time>2020-08-03T17:53:40Z</time></trkpt>
<trkpt lat="51.578267" lon="-2.640465">
<ele>7</ele>
<time>2020-08-03T17:54:43Z</time></trkpt>
<trkpt lat="51.578426" lon="-2.64072">
<ele>7</ele>
<time>2020-08-03T17:55:01Z</time></trkpt>
<trkpt lat="51.579537" lon="-2.640637">
<ele>7</ele>
<time>2020-08-03T17:56:29Z</time></trkpt>
<trkpt lat="51.580143" lon="-2.640466">
<ele>6</ele>
<time>2020-08-03T17:57:18Z</time></trkpt>
<trkpt lat="51.580547" lon="-2.640148">
<ele>6</ele>
<time>2020-08-03T17:57:54Z</time></trkpt>
<trkpt lat="51.580544" lon="-2.640452">
<ele>6</ele>
<time>2020-08-03T17:58:09Z</time></trkpt>
<trkpt lat="51.582581" lon="-2.639422">
<ele>6</ele>
<time>2020-08-03T18:01:02Z</time></trkpt>
<trkpt lat="51.583914" lon="-2.638221">
<ele>8</ele>
<time>2020-08-03T18:03:08Z</time></trkpt>
<trkpt lat="51.585463" lon="-2.636186">
<ele>6</ele>
<time>2020-08-03T18:05:49Z</time></trkpt>
<trkpt lat="51.588173" lon="-2.633073">
<ele>7</ele>
<time>2020-08-03T18:10:15Z</time></trkpt>
<trkpt lat="51.589176" lon="-2.63122">
<ele>7</ele>
<time>2020-08-03T18:12:17Z</time></trkpt>
<trkpt lat="51.590685" lon="-2.627318">
<ele>8</ele>
<time>2020-08-03T18:16:11Z</time></trkpt>
<trkpt lat="51.591798" lon="-2.625468">
<ele>8</ele>
<time>2020-08-03T18:18:26Z</time></trkpt>
<trkpt lat="51.592709" lon="-2.624338">
<ele>10</ele>
<time>2020-08-03T18:20:03Z</time></trkpt>
<trkpt lat="51.593836" lon="-2.623235">
<ele>8</ele>
<time>2020-08-03T18:21:49Z</time></trkpt>
<trkpt lat="51.595181" lon="-2.622302">
<ele>10</ele>
<time>2020-08-03T18:23:49Z</time></trkpt>
<trkpt lat="51.598825" lon="-2.620653">
<ele>18</ele>
<time>2020-08-03T18:29:36Z</time></trkpt>
<trkpt lat="51.599595" lon="-2.619943">
<ele>21</ele>
<time>2020-08-03T18:30:57Z</time></trkpt>
<trkpt lat="51.600361" lon="-2.618624">
<ele>19</ele>
<time>2020-08-03T18:32:25Z</time></trkpt>
<trkpt lat="51.600686" lon="-2.618383">
<ele>18</ele>
<time>2020-08-03T18:32:53Z</time></trkpt>
<trkpt lat="51.601058" lon="-2.618507">
<ele>18</ele>
<time>2020-08-03T18:33:23Z</time></trkpt>
<trkpt lat="51.601287" lon="-2.618397">
<ele>18</ele>
<time>2020-08-03T18:33:42Z</time></trkpt>
<trkpt lat="51.601972" lon="-2.617633">
<ele>19</ele>
<time>2020-08-03T18:34:59Z</time></trkpt>
<trkpt lat="51.602026" lon="-2.617665">
<ele>19</ele>
<time>2020-08-03T18:35:05Z</time></trkpt>
<trkpt lat="51.602039" lon="-2.618263">
<ele>19</ele>
<time>2020-08-03T18:35:41Z</time></trkpt>
<trkpt lat="51.605195" lon="-2.62751">
<ele>27</ele>
<time>2020-08-03T18:45:49Z</time></trkpt>
<trkpt lat="51.619883" lon="-2.666012">
<ele>26</ele>
<time>2020-08-03T19:27:57Z</time></trkpt>
<trkpt lat="51.621259" lon="-2.671977">
<ele>37</ele>
<time>2020-08-03T19:34:15Z</time></trkpt>
<trkpt lat="51.621584" lon="-2.671986">
<ele>39</ele>
<time>2020-08-03T19:34:45Z</time></trkpt>
<trkpt lat="51.621669" lon="-2.672128">
<ele>40</ele>
<time>2020-08-03T19:34:57Z</time></trkpt>
<trkpt lat="51.623027" lon="-2.669513">
<ele>30</ele>
<time>2020-08-03T19:37:57Z</time></trkpt>
<trkpt lat="51.623379" lon="-2.669487">
<ele>30</ele>
<time>2020-08-03T19:38:24Z</time></trkpt>
<trkpt lat="51.623738" lon="-2.669639">
<ele>31</ele>
<time>2020-08-03T19:38:53Z</time></trkpt>
<trkpt lat="51.623831" lon="-2.669777">
<ele>32</ele>
<time>2020-08-03T19:39:03Z</time></trkpt>
<trkpt lat="51.623977" lon="-2.669626">
<ele>31</ele>
<time>2020-08-03T19:39:16Z</time></trkpt>
<trkpt lat="51.625279" lon="-2.670295">
<ele>38</ele>
<time>2020-08-03T19:41:32Z</time></trkpt>
<trkpt lat="51.626597" lon="-2.671426">
<ele>45</ele>
<time>2020-08-03T19:44:13Z</time></trkpt>
<trkpt lat="51.62809" lon="-2.67221">
<ele>50</ele>
<time>2020-08-03T19:46:45Z</time></trkpt>
<trkpt lat="51.628373" lon="-2.672674">
<ele>51</ele>
<time>2020-08-03T19:47:24Z</time></trkpt>
<trkpt lat="51.628412" lon="-2.67298">
<ele>52</ele>
<time>2020-08-03T19:47:42Z</time></trkpt>
<trkpt lat="51.628548" lon="-2.672816">
<ele>52</ele>
<time>2020-08-03T19:47:59Z</time></trkpt>
<trkpt lat="51.630111" lon="-2.673918">
<ele>58</ele>
<time>2020-08-03T19:50:47Z</time></trkpt>
<trkpt lat="51.630157" lon="-2.674012">
<ele>58</ele>
<time>2020-08-03T19:50:55Z</time></trkpt>
<trkpt lat="51.633978" lon="-2.676162">
<ele>69</ele>
<time>2020-08-03T19:57:18Z</time></trkpt>
<trkpt lat="51.636777" lon="-2.678211">
<ele>76</ele>
<time>2020-08-03T20:01:59Z</time></trkpt>
<trkpt lat="51.637963" lon="-2.678881">
<ele>74</ele>
<time>2020-08-03T20:03:38Z</time></trkpt>
<trkpt lat="51.638167" lon="-2.67846">
<ele>69</ele>
<time>2020-08-03T20:03:59Z</time></trkpt>
<trkpt lat="51.638962" lon="-2.678398">
<ele>63</ele>
<time>2020-08-03T20:04:50Z</time></trkpt>
<trkpt lat="51.639468" lon="-2.678052">
<ele>56</ele>
<time>2020-08-03T20:05:25Z</time></trkpt>
<trkpt lat="51.63997" lon="-2.678342">
<ele>54</ele>
<time>2020-08-03T20:06:01Z</time></trkpt>
<trkpt lat="51.640145" lon="-2.678508">
<ele>55</ele>
<time>2020-08-03T20:06:16Z</time></trkpt>
<trkpt lat="51.640623" lon="-2.677646">
<ele>49</ele>
<time>2020-08-03T20:07:10Z</time></trkpt>
<trkpt lat="51.641006" lon="-2.678058">
<ele>50</ele>
<time>2020-08-03T20:07:45Z</time></trkpt>
<trkpt lat="51.641341" lon="-2.677597">
<ele>48</ele>
<time>2020-08-03T20:08:18Z</time></trkpt>
<trkpt lat="51.642532" lon="-2.67956">
<ele>52</ele>
<time>2020-08-03T20:11:03Z</time></trkpt>
<trkpt lat="51.64344" lon="-2.68034">
<ele>58</ele>
<time>2020-08-03T20:12:49Z</time></trkpt>
<trkpt lat="51.644473" lon="-2.68242">
<ele>71</ele>
<time>2020-08-03T20:16:10Z</time></trkpt>
<trkpt lat="51.645605" lon="-2.684215">
<ele>81</ele>
<time>2020-08-03T20:19:11Z</time></trkpt>
<trkpt lat="51.646532" lon="-2.686383">
<ele>87</ele>
<time>2020-08-03T20:22:00Z</time></trkpt>
<trkpt lat="51.647204" lon="-2.68905">
<ele>84</ele>
<time>2020-08-03T20:24:11Z</time></trkpt>
<trkpt lat="51.6474" lon="-2.689508">
<ele>80</ele>
<time>2020-08-03T20:24:36Z</time></trkpt>
<trkpt lat="51.647861" lon="-2.690244">
<ele>77</ele>
<time>2020-08-03T20:25:34Z</time></trkpt>
<trkpt lat="51.65022" lon="-2.691745">
<ele>94</ele>
<time>2020-08-03T20:30:17Z</time></trkpt>
<trkpt lat="51.65167" lon="-2.692312">
<ele>96</ele>
<time>2020-08-03T20:32:30Z</time></trkpt>
<trkpt lat="51.652741" lon="-2.692373">
<ele>95</ele>
<time>2020-08-03T20:34:01Z</time></trkpt>
<trkpt lat="51.654439" lon="-2.692165">
<ele>95</ele>
<time>2020-08-03T20:36:18Z</time></trkpt>
<trkpt lat="51.656317" lon="-2.692384">
<ele>100</ele>
<time>2020-08-03T20:39:00Z</time></trkpt>
<trkpt lat="51.658762" lon="-2.693577">
<ele>101</ele>
<time>2020-08-03T20:42:34Z</time></trkpt>
<trkpt lat="51.663416" lon="-2.696336">
<ele>110</ele>
<time>2020-08-03T20:50:02Z</time></trkpt>
<trkpt lat="51.663422" lon="-2.696463">
<ele>110</ele>
<time>2020-08-03T20:50:11Z</time></trkpt>
<trkpt lat="51.664703" lon="-2.697468">
<ele>113</ele>
<time>2020-08-03T20:52:42Z</time></trkpt>
<trkpt lat="51.664994" lon="-2.697397">
<ele>114</ele>
<time>2020-08-03T20:53:13Z</time></trkpt>
<trkpt lat="51.668257" lon="-2.694302">
<ele>140</ele>
<time>2020-08-03T21:00:22Z</time></trkpt>
<trkpt lat="51.668401" lon="-2.693795">
<ele>141</ele>
<time>2020-08-03T21:00:59Z</time></trkpt>
<trkpt lat="51.667994" lon="-2.692803">
<ele>144</ele>
<time>2020-08-03T21:02:17Z</time></trkpt>
<trkpt lat="51.667998" lon="-2.692224">
<ele>145</ele>
<time>2020-08-03T21:02:55Z</time></trkpt>
<trkpt lat="51.668755" lon="-2.691842">
<ele>150</ele>
<time>2020-08-03T21:04:18Z</time></trkpt>
<trkpt lat="51.669272" lon="-2.690372">
<ele>143</ele>
<time>2020-08-03T21:05:34Z</time></trkpt>
<trkpt lat="51.670224" lon="-2.688868">
<ele>140</ele>
<time>2020-08-03T21:07:11Z</time></trkpt>
<trkpt lat="51.671159" lon="-2.687965">
<ele>143</ele>
<time>2020-08-03T21:08:32Z</time></trkpt>
<trkpt lat="51.671408" lon="-2.687253">
<ele>143</ele>
<time>2020-08-03T21:09:10Z</time></trkpt>
<trkpt lat="51.671418" lon="-2.685665">
<ele>131</ele>
<time>2020-08-03T21:10:22Z</time></trkpt>
<trkpt lat="51.671949" lon="-2.683048">
<ele>117</ele>
<time>2020-08-03T21:12:20Z</time></trkpt>
<trkpt lat="51.67283" lon="-2.681501">
<ele>127</ele>
<time>2020-08-03T21:13:54Z</time></trkpt>
<trkpt lat="51.672976" lon="-2.68094">
<ele>128</ele>
<time>2020-08-03T21:14:22Z</time></trkpt>
<trkpt lat="51.672894" lon="-2.677453">
<ele>105</ele>
<time>2020-08-03T21:17:05Z</time></trkpt>
<trkpt lat="51.673184" lon="-2.676725">
<ele>107</ele>
<time>2020-08-03T21:17:47Z</time></trkpt>
<trkpt lat="51.674623" lon="-2.675049">
<ele>104</ele>
<time>2020-08-03T21:20:05Z</time></trkpt>
<trkpt lat="51.67461" lon="-2.67484">
<ele>101</ele>
<time>2020-08-03T21:20:15Z</time></trkpt>
<trkpt lat="51.674623" lon="-2.675049">
<ele>104</ele>
<time>2020-08-03T21:20:25Z</time></trkpt>
<trkpt lat="51.677764" lon="-2.673489">
<ele>97</ele>
<time>2020-08-03T21:24:31Z</time></trkpt>
<trkpt lat="51.678077" lon="-2.67365">
<ele>94</ele>
<time>2020-08-03T21:24:55Z</time></trkpt>
<trkpt lat="51.679261" lon="-2.675666">
<ele>103</ele>
<time>2020-08-03T21:27:29Z</time></trkpt>
<trkpt lat="51.680131" lon="-2.676367">
<ele>102</ele>
<time>2020-08-03T21:28:57Z</time></trkpt>
<trkpt lat="51.680986" lon="-2.676411">
<ele>96</ele>
<time>2020-08-03T21:29:54Z</time></trkpt>
<trkpt lat="51.682431" lon="-2.675915">
<ele>85</ele>
<time>2020-08-03T21:31:32Z</time></trkpt>
<trkpt lat="51.683876" lon="-2.675844">
<ele>85</ele>
<time>2020-08-03T21:33:21Z</time></trkpt>
<trkpt lat="51.68652" lon="-2.674886">
<ele>67</ele>
<time>2020-08-03T21:36:27Z</time></trkpt>
<trkpt lat="51.687066" lon="-2.674139">
<ele>60</ele>
<time>2020-08-03T21:37:13Z</time></trkpt>
<trkpt lat="51.688937" lon="-2.672458">
<ele>52</ele>
<time>2020-08-03T21:39:49Z</time></trkpt>
<trkpt lat="51.690164" lon="-2.671596">
<ele>49</ele>
<time>2020-08-03T21:41:33Z</time></trkpt>
<trkpt lat="51.690877" lon="-2.671299">
<ele>49</ele>
<time>2020-08-03T21:42:31Z</time></trkpt>
<trkpt lat="51.691939" lon="-2.67125">
<ele>46</ele>
<time>2020-08-03T21:43:55Z</time></trkpt>
<trkpt lat="51.69298" lon="-2.672367">
<ele>48</ele>
<time>2020-08-03T21:45:34Z</time></trkpt>
<trkpt lat="51.694096" lon="-2.674551">
<ele>42</ele>
<time>2020-08-03T21:47:42Z</time></trkpt>
<trkpt lat="51.695729" lon="-2.677216">
<ele>24</ele>
<time>2020-08-03T21:50:20Z</time></trkpt>
<trkpt lat="51.697314" lon="-2.679411">
<ele>17</ele>
<time>2020-08-03T21:52:49Z</time></trkpt>
<trkpt lat="51.698101" lon="-2.681518">
<ele>17</ele>
<time>2020-08-03T21:54:44Z</time></trkpt>
<trkpt lat="51.698538" lon="-2.682241">
<ele>16</ele>
<time>2020-08-03T21:55:38Z</time></trkpt>
<trkpt lat="51.699392" lon="-2.682784">
<ele>18</ele>
<time>2020-08-03T21:57:08Z</time></trkpt>
<trkpt lat="51.700084" lon="-2.683792">
<ele>24</ele>
<time>2020-08-03T21:58:41Z</time></trkpt>
<trkpt lat="51.70077" lon="-2.684391">
<ele>23</ele>
<time>2020-08-03T21:59:55Z</time></trkpt>
<trkpt lat="51.701721" lon="-2.68449">
<ele>27</ele>
<time>2020-08-03T22:01:22Z</time></trkpt>
<trkpt lat="51.702611" lon="-2.684209">
<ele>27</ele>
<time>2020-08-03T22:02:45Z</time></trkpt>
<trkpt lat="51.70329" lon="-2.683522">
<ele>30</ele>
<time>2020-08-03T22:03:44Z</time></trkpt>
<trkpt lat="51.703701" lon="-2.682515">
<ele>25</ele>
<time>2020-08-03T22:04:36Z</time></trkpt>
<trkpt lat="51.704027" lon="-2.679924">
<ele>16</ele>
<time>2020-08-03T22:06:36Z</time></trkpt>
<trkpt lat="51.703005" lon="-2.675968">
<ele>16</ele>
<time>2020-08-03T22:10:09Z</time></trkpt>
<trkpt lat="51.703908" lon="-2.679345">
<ele>17</ele>
<time>2020-08-03T22:13:41Z</time></trkpt>
<trkpt lat="51.70399" lon="-2.680375">
<ele>15</ele>
<time>2020-08-03T22:14:55Z</time></trkpt>
<trkpt lat="51.704501" lon="-2.680638">
<ele>23</ele>
<time>2020-08-03T22:15:57Z</time></trkpt>
<trkpt lat="51.705019" lon="-2.68094">
<ele>31</ele>
<time>2020-08-03T22:17:01Z</time></trkpt>
<trkpt lat="51.705329" lon="-2.681457">
<ele>39</ele>
<time>2020-08-03T22:17:54Z</time></trkpt>
<trkpt lat="51.705577" lon="-2.682502">
<ele>39</ele>
<time>2020-08-03T22:19:18Z</time></trkpt>
<trkpt lat="51.70635" lon="-2.68369">
<ele>46</ele>
<time>2020-08-03T22:21:26Z</time></trkpt>
<trkpt lat="51.706843" lon="-2.684035">
<ele>48</ele>
<time>2020-08-03T22:22:30Z</time></trkpt>
<trkpt lat="51.709575" lon="-2.684574">
<ele>69</ele>
<time>2020-08-03T22:28:04Z</time></trkpt>
<trkpt lat="51.710411" lon="-2.685044">
<ele>74</ele>
<time>2020-08-03T22:29:54Z</time></trkpt>
<trkpt lat="51.710984" lon="-2.685109">
<ele>80</ele>
<time>2020-08-03T22:31:06Z</time></trkpt>
<trkpt lat="51.711547" lon="-2.686002">
<ele>86</ele>
<time>2020-08-03T22:32:37Z</time></trkpt>
<trkpt lat="51.712168" lon="-2.687615">
<ele>95</ele>
<time>2020-08-03T22:34:47Z</time></trkpt>
<trkpt lat="51.712951" lon="-2.68876">
<ele>101</ele>
<time>2020-08-03T22:36:47Z</time></trkpt>
<trkpt lat="51.715393" lon="-2.689179">
<ele>112</ele>
<time>2020-08-03T22:41:38Z</time></trkpt>
<trkpt lat="51.716023" lon="-2.688905">
<ele>116</ele>
<time>2020-08-03T22:42:51Z</time></trkpt>
<trkpt lat="51.716439" lon="-2.688487">
<ele>119</ele>
<time>2020-08-03T22:43:45Z</time></trkpt>
<trkpt lat="51.71681" lon="-2.688676">
<ele>120</ele>
<time>2020-08-03T22:44:28Z</time></trkpt>
<trkpt lat="51.717738" lon="-2.688036">
<ele>128</ele>
<time>2020-08-03T22:46:17Z</time></trkpt>
<trkpt lat="51.71853" lon="-2.688307">
<ele>132</ele>
<time>2020-08-03T22:47:43Z</time></trkpt>
<trkpt lat="51.718866" lon="-2.68882">
<ele>136</ele>
<time>2020-08-03T22:48:32Z</time></trkpt>
<trkpt lat="51.719235" lon="-2.688875">
<ele>137</ele>
<time>2020-08-03T22:49:11Z</time></trkpt>
<trkpt lat="51.720283" lon="-2.688066">
<ele>140</ele>
<time>2020-08-03T22:50:56Z</time></trkpt>
<trkpt lat="51.720901" lon="-2.687492">
<ele>139</ele>
<time>2020-08-03T22:51:57Z</time></trkpt>
<trkpt lat="51.721486" lon="-2.687384">
<ele>140</ele>
<time>2020-08-03T22:52:47Z</time></trkpt>
<trkpt lat="51.72356" lon="-2.686483">
<ele>120</ele>
<time>2020-08-03T22:55:09Z</time></trkpt>
<trkpt lat="51.724623" lon="-2.686397">
<ele>110</ele>
<time>2020-08-03T22:56:20Z</time></trkpt>
<trkpt lat="51.725509" lon="-2.686724">
<ele>107</ele>
<time>2020-08-03T22:57:24Z</time></trkpt>
<trkpt lat="51.726789" lon="-2.687544">
<ele>107</ele>
<time>2020-08-03T22:59:04Z</time></trkpt>
<trkpt lat="51.728638" lon="-2.689332">
<ele>100</ele>
<time>2020-08-03T23:01:50Z</time></trkpt>
<trkpt lat="51.729348" lon="-2.68983">
<ele>93</ele>
<time>2020-08-03T23:03:17Z</time></trkpt>
<trkpt lat="51.730938" lon="-2.689961">
<ele>61</ele>
<time>2020-08-03T23:06:14Z</time></trkpt>
<trkpt lat="51.731575" lon="-2.69017">
<ele>57</ele>
<time>2020-08-03T23:07:00Z</time></trkpt>
<trkpt lat="51.732142" lon="-2.689925">
<ele>49</ele>
<time>2020-08-03T23:07:42Z</time></trkpt>
<trkpt lat="51.732624" lon="-2.690152">
<ele>53</ele>
<time>2020-08-03T23:08:18Z</time></trkpt>
<trkpt lat="51.733344" lon="-2.690034">
<ele>50</ele>
<time>2020-08-03T23:09:09Z</time></trkpt>
<trkpt lat="51.733637" lon="-2.690439">
<ele>57</ele>
<time>2020-08-03T23:09:32Z</time></trkpt>
<trkpt lat="51.733926" lon="-2.690441">
<ele>55</ele>
<time>2020-08-03T23:09:49Z</time></trkpt>
<trkpt lat="51.734326" lon="-2.689115">
<ele>36</ele>
<time>2020-08-03T23:10:44Z</time></trkpt>
<trkpt lat="51.734206" lon="-2.686879">
<ele>21</ele>
<time>2020-08-03T23:12:15Z</time></trkpt>
<trkpt lat="51.735101" lon="-2.684275">
<ele>17</ele>
<time>2020-08-03T23:14:32Z</time></trkpt>
<trkpt lat="51.735636" lon="-2.680828">
<ele>20</ele>
<time>2020-08-03T23:17:44Z</time></trkpt>
<trkpt lat="51.737317" lon="-2.675586">
<ele>24</ele>
<time>2020-08-03T23:23:06Z</time></trkpt>
<trkpt lat="51.73844" lon="-2.672918">
<ele>27</ele>
<time>2020-08-03T23:26:13Z</time></trkpt>
<trkpt lat="51.739051" lon="-2.672443">
<ele>28</ele>
<time>2020-08-03T23:27:12Z</time></trkpt>
<trkpt lat="51.74025" lon="-2.672046">
<ele>32</ele>
<time>2020-08-03T23:28:58Z</time></trkpt>
<trkpt lat="51.74228" lon="-2.671667">
<ele>31</ele>
<time>2020-08-03T23:31:31Z</time></trkpt>
<trkpt lat="51.742862" lon="-2.67037">
<ele>13</ele>
<time>2020-08-03T23:32:44Z</time></trkpt>
<trkpt lat="51.742653" lon="-2.668322">
<ele>15</ele>
<time>2020-08-03T23:34:16Z</time></trkpt>
<trkpt lat="51.743008" lon="-2.667604">
<ele>16</ele>
<time>2020-08-03T23:34:59Z</time></trkpt>
<trkpt lat="51.743315" lon="-2.667374">
<ele>17</ele>
<time>2020-08-03T23:35:28Z</time></trkpt>
<trkpt lat="51.746415" lon="-2.666163">
<ele>26</ele>
<time>2020-08-03T23:40:50Z</time></trkpt>
<trkpt lat="51.749856" lon="-2.663322">
<ele>45</ele>
<time>2020-08-03T23:47:32Z</time></trkpt>
<trkpt lat="51.754388" lon="-2.661855">
<ele>26</ele>
<time>2020-08-03T23:53:09Z</time></trkpt>
<trkpt lat="51.755911" lon="-2.661537">
<ele>30</ele>
<time>2020-08-03T23:55:33Z</time></trkpt>
<trkpt lat="51.75674" lon="-2.661925">
<ele>32</ele>
<time>2020-08-03T23:56:55Z</time></trkpt>
<trkpt lat="51.757813" lon="-2.663172">
<ele>36</ele>
<time>2020-08-03T23:58:50Z</time></trkpt>
<trkpt lat="51.75847" lon="-2.664967">
<ele>36</ele>
<time>2020-08-04T00:00:43Z</time></trkpt>
<trkpt lat="51.75933" lon="-2.668572">
<ele>40</ele>
<time>2020-08-04T00:04:24Z</time></trkpt>
<trkpt lat="51.76035" lon="-2.670618">
<ele>47</ele>
<time>2020-08-04T00:07:13Z</time></trkpt>
<trkpt lat="51.761566" lon="-2.671923">
<ele>52</ele>
<time>2020-08-04T00:09:19Z</time></trkpt>
<trkpt lat="51.763053" lon="-2.674197">
<ele>37</ele>
<time>2020-08-04T00:11:49Z</time></trkpt>
<trkpt lat="51.765555" lon="-2.676219">
<ele>37</ele>
<time>2020-08-04T00:15:23Z</time></trkpt>
<trkpt lat="51.767892" lon="-2.678719">
<ele>32</ele>
<time>2020-08-04T00:19:12Z</time></trkpt>
<trkpt lat="51.769061" lon="-2.679416">
<ele>36</ele>
<time>2020-08-04T00:21:01Z</time></trkpt>
<trkpt lat="51.770065" lon="-2.679605">
<ele>34</ele>
<time>2020-08-04T00:22:20Z</time></trkpt>
<trkpt lat="51.771279" lon="-2.678944">
<ele>33</ele>
<time>2020-08-04T00:24:01Z</time></trkpt>
<trkpt lat="51.773862" lon="-2.676171">
<ele>37</ele>
<time>2020-08-04T00:28:13Z</time></trkpt>
<trkpt lat="51.775554" lon="-2.674953">
<ele>37</ele>
<time>2020-08-04T00:31:03Z</time></trkpt>
<trkpt lat="51.776762" lon="-2.674438">
<ele>37</ele>
<time>2020-08-04T00:32:42Z</time></trkpt>
<trkpt lat="51.778143" lon="-2.674373">
<ele>36</ele>
<time>2020-08-04T00:34:29Z</time></trkpt>
<trkpt lat="51.780586" lon="-2.675103">
<ele>31</ele>
<time>2020-08-04T00:37:41Z</time></trkpt>
<trkpt lat="51.781223" lon="-2.675038">
<ele>29</ele>
<time>2020-08-04T00:38:41Z</time></trkpt>
<trkpt lat="51.781887" lon="-2.674502">
<ele>36</ele>
<time>2020-08-04T00:39:51Z</time></trkpt>
<trkpt lat="51.782476" lon="-2.673727">
<ele>36</ele>
<time>2020-08-04T00:41:02Z</time></trkpt>
<trkpt lat="51.78432" lon="-2.67245">
<ele>19</ele>
<time>2020-08-04T00:43:18Z</time></trkpt>
<trkpt lat="51.785139" lon="-2.67235">
<ele>22</ele>
<time>2020-08-04T00:44:22Z</time></trkpt>
<trkpt lat="51.785656" lon="-2.672626">
<ele>24</ele>
<time>2020-08-04T00:45:12Z</time></trkpt>
<trkpt lat="51.789179" lon="-2.676081">
<ele>29</ele>
<time>2020-08-04T00:51:18Z</time></trkpt>
<trkpt lat="51.79162" lon="-2.679618">
<ele>29</ele>
<time>2020-08-04T00:55:55Z</time></trkpt>
<trkpt lat="51.794443" lon="-2.684244">
<ele>30</ele>
<time>2020-08-04T01:01:17Z</time></trkpt>
<trkpt lat="51.796513" lon="-2.686245">
<ele>33</ele>
<time>2020-08-04T01:05:00Z</time></trkpt>
<trkpt lat="51.798756" lon="-2.687377">
<ele>45</ele>
<time>2020-08-04T01:09:01Z</time></trkpt>
<trkpt lat="51.799565" lon="-2.688149">
<ele>42</ele>
<time>2020-08-04T01:10:12Z</time></trkpt>
<trkpt lat="51.80072" lon="-2.68978">
<ele>38</ele>
<time>2020-08-04T01:12:06Z</time></trkpt>
<trkpt lat="51.802214" lon="-2.694411">
<ele>25</ele>
<time>2020-08-04T01:16:07Z</time></trkpt>
<trkpt lat="51.803488" lon="-2.69956">
<ele>30</ele>
<time>2020-08-04T01:21:02Z</time></trkpt>
<trkpt lat="51.806032" lon="-2.706337">
<ele>24</ele>
<time>2020-08-04T01:27:28Z</time></trkpt>
<trkpt lat="51.806756" lon="-2.706759">
<ele>26</ele>
<time>2020-08-04T01:28:27Z</time></trkpt>
<trkpt lat="51.810632" lon="-2.707234">
<ele>20</ele>
<time>2020-08-04T01:33:27Z</time></trkpt>
<trkpt lat="51.81117" lon="-2.709422">
<ele>16</ele>
<time>2020-08-04T01:35:24Z</time></trkpt>
<trkpt lat="51.811631" lon="-2.710396">
<ele>18</ele>
<time>2020-08-04T01:36:27Z</time></trkpt>
<trkpt lat="51.806348" lon="-2.715083">
<ele>17</ele>
<time>2020-08-04T01:44:31Z</time></trkpt>
<trkpt lat="51.805704" lon="-2.715575">
<ele>19</ele>
<time>2020-08-04T01:45:34Z</time></trkpt>
<trkpt lat="51.805434" lon="-2.715683">
<ele>19</ele>
<time>2020-08-04T01:45:59Z</time></trkpt>
<trkpt lat="51.805109" lon="-2.715582">
<ele>19</ele>
<time>2020-08-04T01:46:29Z</time></trkpt>
<trkpt lat="51.803367" lon="-2.714673">
<ele>27</ele>
<time>2020-08-04T01:49:23Z</time></trkpt>
<trkpt lat="51.803144" lon="-2.714813">
<ele>30</ele>
<time>2020-08-04T01:49:46Z</time></trkpt>
<trkpt lat="51.802674" lon="-2.714178">
<ele>29</ele>
<time>2020-08-04T01:50:47Z</time></trkpt>
<trkpt lat="51.80203" lon="-2.713793">
<ele>28</ele>
<time>2020-08-04T01:51:50Z</time></trkpt>
<trkpt lat="51.801639" lon="-2.713668">
<ele>27</ele>
<time>2020-08-04T01:52:19Z</time></trkpt>
<trkpt lat="51.801253" lon="-2.713826">
<ele>26</ele>
<time>2020-08-04T01:52:48Z</time></trkpt>
<trkpt lat="51.80109" lon="-2.714462">
<ele>25</ele>
<time>2020-08-04T01:53:19Z</time></trkpt>
<trkpt lat="51.8012" lon="-2.716238">
<ele>20</ele>
<time>2020-08-04T01:54:41Z</time></trkpt>
<trkpt lat="51.800786" lon="-2.717085">
<ele>19</ele>
<time>2020-08-04T01:55:46Z</time></trkpt>
<trkpt lat="51.800371" lon="-2.718411">
<ele>26</ele>
<time>2020-08-04T01:57:14Z</time></trkpt>
<trkpt lat="51.800182" lon="-2.719076">
<ele>25</ele>
<time>2020-08-04T01:57:58Z</time></trkpt>
<trkpt lat="51.798797" lon="-2.719578">
<ele>32</ele>
<time>2020-08-04T01:59:54Z</time></trkpt>
<trkpt lat="51.79759" lon="-2.720724">
<ele>23</ele>
<time>2020-08-04T02:01:44Z</time></trkpt>
<trkpt lat="51.797127" lon="-2.721725">
<ele>23</ele>
<time>2020-08-04T02:02:53Z</time></trkpt>
<trkpt lat="51.796353" lon="-2.724262">
<ele>29</ele>
<time>2020-08-04T02:05:27Z</time></trkpt>
<trkpt lat="51.79582" lon="-2.725312">
<ele>29</ele>
<time>2020-08-04T02:06:33Z</time></trkpt>
<trkpt lat="51.794871" lon="-2.726618">
<ele>26</ele>
<time>2020-08-04T02:08:11Z</time></trkpt>
<trkpt lat="51.793803" lon="-2.728904">
<ele>29</ele>
<time>2020-08-04T02:10:59Z</time></trkpt>
<trkpt lat="51.792586" lon="-2.729706">
<ele>35</ele>
<time>2020-08-04T02:12:58Z</time></trkpt>
<trkpt lat="51.791794" lon="-2.730408">
<ele>40</ele>
<time>2020-08-04T02:14:10Z</time></trkpt>
<trkpt lat="51.791488" lon="-2.730929">
<ele>38</ele>
<time>2020-08-04T02:14:46Z</time></trkpt>
<trkpt lat="51.790921" lon="-2.733335">
<ele>29</ele>
<time>2020-08-04T02:16:53Z</time></trkpt>
</trkseg>
</trk>
</gpx>